Observation data for Guadalupe Mtns Park on 02/24/2021      Previous  Date  Next       Current Mesonet Observations  Soil Data  Daily Summary Page  Observations in Plain Language
KGU1 240600Z 26023G32KT 16/M19 A30 RMK A01 T01601190  RH  008%=      5-min Rain = 0
KGU1 240601Z 27023G30KT 16/M19 A30 RMK A01 T01601190  RH  007%=      5-min Rain = 0
KGU1 240602Z 27024G30KT 16/M19 A30 RMK A01 T01601191  RH  007%=      5-min Rain = 0
KGU1 240603Z 27025G36KT 16/M19 A30 RMK A01 T01591191  RH  007%=      5-min Rain = 0
KGU1 240604Z 25023G32KT 16/M19 A30 RMK A01 T01601191  RH  007%=      5-min Rain = 0
KGU1 240605Z 26023G34KT 16/M19 A30 RMK A01 T01611192  RH  007%=      5-min Rain = 0
KGU1 240606Z 27022G33KT 16/M19 A30 RMK A01 T01621192  RH  007%=      5-min Rain = 0
KGU1 240607Z 26023G33KT 16/M19 A30 RMK A01 T01601193  RH  007%=      5-min Rain = 0
KGU1 240608Z 27025G34KT 16/M19 A30 RMK A01 T01611193  RH  007%=      5-min Rain = 0
KGU1 240609Z 26022G31KT 16/M19 A30 RMK A01 T01591194  RH  007%=      5-min Rain = 0
KGU1 240610Z 27025G35KT 16/M19 A30 RMK A01 T01591193  RH  007%=      5-min Rain = 0
KGU1 240611Z 26023G31KT 16/M19 A30 RMK A01 T01591194  RH  007%=      5-min Rain = 0
KGU1 240612Z 27025G32KT 16/M19 A30 RMK A01 T01581193  RH  007%=      5-min Rain = 0
KGU1 240613Z 26025G33KT 16/M19 A30 RMK A01 T01591194  RH  007%=      5-min Rain = 0
KGU1 240614Z 26027G36KT 16/M19 A2999 RMK A01 T01591194  RH  007%=      5-min Rain = 0
KGU1 240615Z 26025G36KT 16/M19 A2999 RMK A01 T01601194  RH  007%=      5-min Rain = 0
KGU1 240616Z 27023G31KT 16/M19 A30 RMK A01 T01601194  RH  007%=      5-min Rain = 0
KGU1 240617Z 27021G26KT 16/M20 A30 RMK A01 T01581195  RH  007%=      5-min Rain = 0
KGU1 240618Z 26025G35KT 16/M20 A2999 RMK A01 T01571195  RH  007%=      5-min Rain = 0
KGU1 240619Z 26018G26KT 16/M20 A30 RMK A01 T01571195  RH  007%=      5-min Rain = 0
KGU1 240620Z 26025G39KT 16/M20 A2999 RMK A01 T01571195  RH  007%=      5-min Rain = 0
KGU1 240621Z 26028G39KT 16/M20 A2999 RMK A01 T01591196  RH  007%=      5-min Rain = 0
KGU1 240622Z 26023G29KT 16/M20 A2999 RMK A01 T01601196  RH  007%=      5-min Rain = 0
KGU1 240623Z 27025G33KT 16/M20 A2999 RMK A01 T01611197  RH  007%=      5-min Rain = 0
KGU1 240624Z 26024G38KT 16/M20 A2999 RMK A01 T01601197  RH  007%=      5-min Rain = 0
KGU1 240625Z 26026G37KT 16/M20 A2999 RMK A01 T01601197  RH  007%=      5-min Rain = 0
KGU1 240626Z 25026G38KT 16/M20 A2999 RMK A01 T01611198  RH  007%=      5-min Rain = 0
KGU1 240627Z 26027G37KT 16/M20 A2999 RMK A01 T01621198  RH  007%=      5-min Rain = 0
KGU1 240628Z 26024G34KT 16/M20 A2999 RMK A01 T01631198  RH  007%=      5-min Rain = 0
KGU1 240629Z 26021G29KT 16/M20 A2999 RMK A01 T01621199  RH  007%=      5-min Rain = 0
KGU1 240630Z 26026G37KT 16/M20 A2999 RMK A01 T01601199  RH  007%=      5-min Rain = 0
KGU1 240631Z 27023G30KT 16/M20 A2999 RMK A01 T01611199  RH  007%=      5-min Rain = 0
KGU1 240632Z 26023G33KT 16/M20 A2999 RMK A01 T01601199  RH  007%=      5-min Rain = 0
KGU1 240633Z 26026G41KT 16/M20 A2999 RMK A01 T01591199  RH  007%=      5-min Rain = 0
KGU1 240634Z 26028G41KT 16/M20 A2999 RMK A01 T01591200  RH  007%=      5-min Rain = 0
KGU1 240635Z 27027G35KT 16/M20 A2999 RMK A01 T01601200  RH  007%=      5-min Rain = 0
KGU1 240636Z 26024G33KT 16/M20 A2999 RMK A01 T01601200  RH  007%=      5-min Rain = 0
KGU1 240637Z 27024G30KT 16/M20 A2999 RMK A01 T01591200  RH  007%=      5-min Rain = 0
KGU1 240638Z 27021G31KT 16/M20 A2999 RMK A01 T01581200  RH  007%=      5-min Rain = 0
KGU1 240639Z 28025G32KT 16/M20 A2999 RMK A01 T01561200  RH  007%=      5-min Rain = 0
KGU1 240640Z 26022G30KT 16/M20 A2999 RMK A01 T01561200  RH  007%=      5-min Rain = 0
KGU1 240641Z 26022G32KT 16/M20 A2999 RMK A01 T01571201  RH  007%=      5-min Rain = 0
KGU1 240642Z 27021G35KT 16/M20 A2999 RMK A01 T01571201  RH  007%=      5-min Rain = 0
KGU1 240643Z 26021G30KT 16/M20 A2999 RMK A01 T01561201  RH  007%=      5-min Rain = 0
KGU1 240644Z 27024G36KT 16/M20 A2999 RMK A01 T01561201  RH  007%=      5-min Rain = 0
KGU1 240645Z 27026G33KT 16/M20 A2999 RMK A01 T01571201  RH  007%=      5-min Rain = 0
KGU1 240646Z 26024G31KT 16/M20 A2999 RMK A01 T01581201  RH  007%=      5-min Rain = 0
KGU1 240647Z 27026G33KT 16/M20 A2999 RMK A01 T01591202  RH  007%=      5-min Rain = 0
KGU1 240648Z 28027G34KT 16/M20 A2999 RMK A01 T01591202  RH  007%=      5-min Rain = 0
KGU1 240649Z 27021G29KT 16/M20 A2999 RMK A01 T01591202  RH  007%=      5-min Rain = 0
KGU1 240650Z 27023G30KT 16/M20 A2999 RMK A01 T01561203  RH  007%=      5-min Rain = 0
KGU1 240651Z 27023G31KT 16/M20 A2999 RMK A01 T01561203  RH  007%=      5-min Rain = 0
KGU1 240652Z 27022G33KT 16/M20 A2999 RMK A01 T01561202  RH  007%=      5-min Rain = 0
KGU1 240653Z 28027G37KT 16/M20 A2999 RMK A01 T01561203  RH  007%=      5-min Rain = 0
KGU1 240654Z 27022G29KT 16/M20 A2999 RMK A01 T01571203  RH  007%=      5-min Rain = 0
KGU1 240655Z 28025G35KT 16/M20 A30 RMK A01 T01581203  RH  007%=      5-min Rain = 0
KGU1 240656Z 27028G39KT 16/M20 A2999 RMK A01 T01581204  RH  007%=      5-min Rain = 0
KGU1 240657Z 27027G33KT 16/M21 A2999 RMK A01 T01591205  RH  007%=      5-min Rain = 0
KGU1 240658Z 27024G34KT 16/M21 A2999 RMK A01 T01591206  RH  007%=      5-min Rain = 0
KGU1 240659Z 27025G34KT 16/M21 A2999 RMK A01 T01591206  RH  007%=      5-min Rain = 0
KGU1 240700Z 27027G43KT 16/M21 A30 RMK A01 T01581206  RH  007%=      5-min Rain = 0
KGU1 240701Z 27029G35KT 16/M21 A2999 RMK A01 T01591205  RH  007%=      5-min Rain = 0
KGU1 240702Z 27025G34KT 16/M21 A2999 RMK A01 T01601206  RH  007%=      5-min Rain = 0
KGU1 240703Z 28024G36KT 16/M21 A30 RMK A01 T01601206  RH  007%=      5-min Rain = 0
KGU1 240704Z 27026G33KT 16/M21 A2999 RMK A01 T01591205  RH  007%=      5-min Rain = 0
KGU1 240705Z 27023G30KT 16/M21 A30 RMK A01 T01601205  RH  007%=      5-min Rain = 0
KGU1 240706Z 27020G28KT 16/M21 A30 RMK A01 T01601206  RH  007%=      5-min Rain = 0
KGU1 240707Z 27028G41KT 16/M21 A2999 RMK A01 T01591206  RH  007%=      5-min Rain = 0
KGU1 240708Z 27028G45KT 16/M21 A30 RMK A01 T01601206  RH  007%=      5-min Rain = 0
KGU1 240709Z 27024G31KT 16/M21 A30 RMK A01 T01611206  RH  007%=      5-min Rain = 0
KGU1 240710Z 27027G32KT 16/M21 A30 RMK A01 T01601206  RH  007%=      5-min Rain = 0
KGU1 240711Z 28028G42KT 16/M21 A2999 RMK A01 T01601208  RH  006%=      5-min Rain = 0
KGU1 240712Z 28028G45KT 16/M21 A30 RMK A01 T01611208  RH  006%=      5-min Rain = 0
KGU1 240713Z 26026G39KT 16/M21 A30 RMK A01 T01621208  RH  006%=      5-min Rain = 0
KGU1 240714Z 26022G31KT 16/M21 A30 RMK A01 T01621207  RH  006%=      5-min Rain = 0
KGU1 240715Z 27026G37KT 16/M21 A30 RMK A01 T01621208  RH  006%=      5-min Rain = 0
KGU1 240716Z 27027G38KT 16/M21 A30 RMK A01 T01621208  RH  006%=      5-min Rain = 0
KGU1 240717Z 27024G35KT 16/M21 A30 RMK A01 T01621208  RH  006%=      5-min Rain = 0
KGU1 240718Z 28026G40KT 16/M21 A30 RMK A01 T01611209  RH  006%=      5-min Rain = 0
KGU1 240719Z 27022G27KT 16/M21 A30 RMK A01 T01621208  RH  006%=      5-min Rain = 0
KGU1 240720Z 27023G31KT 16/M21 A30 RMK A01 T01611208  RH  006%=      5-min Rain = 0
KGU1 240721Z 27024G33KT 16/M21 A30 RMK A01 T01611209  RH  006%=      5-min Rain = 0
KGU1 240722Z 27023G31KT 16/M21 A30 RMK A01 T01611209  RH  006%=      5-min Rain = 0
KGU1 240723Z 28028G37KT 16/M21 A30 RMK A01 T01611209  RH  006%=      5-min Rain = 0
KGU1 240724Z 27023G37KT 16/M21 A30 RMK A01 T01611209  RH  006%=      5-min Rain = 0
KGU1 240725Z 27026G32KT 16/M21 A30 RMK A01 T01611208  RH  006%=      5-min Rain = 0
KGU1 240726Z 28025G34KT 16/M21 A30 RMK A01 T01611208  RH  006%=      5-min Rain = 0
KGU1 240727Z 27024G35KT 16/M21 A30 RMK A01 T01611208  RH  006%=      5-min Rain = 0
KGU1 240728Z 28022G29KT 16/M21 A30 RMK A01 T01611208  RH  006%=      5-min Rain = 0
KGU1 240729Z 28020G39KT 16/M21 A3001 RMK A01 T01591209  RH  006%=      5-min Rain = 0
KGU1 240730Z 28030G40KT 16/M21 A30 RMK A01 T01581209  RH  006%=      5-min Rain = 0
KGU1 240731Z 28025G34KT 16/M21 A3001 RMK A01 T01611208  RH  006%=      5-min Rain = 0
KGU1 240732Z 27022G29KT 16/M21 A30 RMK A01 T01611209  RH  006%=      5-min Rain = 0
KGU1 240733Z 27019G25KT 16/M21 A30 RMK A01 T01601209  RH  006%=      5-min Rain = 0
KGU1 240734Z 27019G28KT 16/M21 A3001 RMK A01 T01581210  RH  006%=      5-min Rain = 0
KGU1 240735Z 28023G32KT 16/M21 A30 RMK A01 T01581209  RH  006%=      5-min Rain = 0
KGU1 240736Z 27021G30KT 16/M21 A30 RMK A01 T01581209  RH  006%=      5-min Rain = 0
KGU1 240737Z 27022G28KT 16/M21 A3001 RMK A01 T01581209  RH  006%=      5-min Rain = 0
KGU1 240738Z 28027G36KT 16/M21 A30 RMK A01 T01581209  RH  006%=      5-min Rain = 0
KGU1 240739Z 28026G34KT 16/M21 A3001 RMK A01 T01581208  RH  006%=      5-min Rain = 0
KGU1 240740Z 27022G29KT 16/M21 A30 RMK A01 T01591208  RH  006%=      5-min Rain = 0
KGU1 240741Z 27023G30KT 16/M21 A3001 RMK A01 T01601207  RH  006%=      5-min Rain = 0
KGU1 240742Z 27021G28KT 16/M21 A3001 RMK A01 T01601208  RH  006%=      5-min Rain = 0
KGU1 240743Z 27022G29KT 16/M21 A3001 RMK A01 T01591208  RH  006%=      5-min Rain = 0
KGU1 240744Z 27020G27KT 16/M21 A3001 RMK A01 T01581207  RH  007%=      5-min Rain = 0
KGU1 240745Z 27017G24KT 16/M21 A3001 RMK A01 T01581207  RH  007%=      5-min Rain = 0
KGU1 240746Z 27021G30KT 16/M21 A3001 RMK A01 T01561207  RH  007%=      5-min Rain = 0
KGU1 240747Z 27020G27KT 16/M21 A3001 RMK A01 T01561207  RH  007%=      5-min Rain = 0
KGU1 240748Z 27022G29KT 16/M21 A3001 RMK A01 T01561207  RH  007%=      5-min Rain = 0
KGU1 240749Z 27021G27KT 16/M21 A3001 RMK A01 T01561207  RH  007%=      5-min Rain = 0
KGU1 240750Z 27021G31KT 16/M21 A3001 RMK A01 T01561207  RH  007%=      5-min Rain = 0
KGU1 240751Z 26024G32KT 16/M21 A3001 RMK A01 T01571208  RH  007%=      5-min Rain = 0
KGU1 240752Z 26021G32KT 16/M21 A3001 RMK A01 T01581208  RH  007%=      5-min Rain = 0
KGU1 240753Z 27023G30KT 16/M21 A3001 RMK A01 T01581208  RH  007%=      5-min Rain = 0
KGU1 240754Z 27022G30KT 16/M21 A3001 RMK A01 T01581208  RH  007%=      5-min Rain = 0
KGU1 240755Z 28026G45KT 16/M21 A3001 RMK A01 T01571209  RH  007%=      5-min Rain = 0
KGU1 240756Z 27026G35KT 16/M21 A3001 RMK A01 T01591208  RH  007%=      5-min Rain = 0
KGU1 240757Z 27022G30KT 16/M21 A3001 RMK A01 T01601208  RH  006%=      5-min Rain = 0
KGU1 240758Z 28024G37KT 16/M21 A3001 RMK A01 T01591209  RH  006%=      5-min Rain = 0
KGU1 240759Z 28027G37KT 16/M21 A3001 RMK A01 T01591209  RH  006%=      5-min Rain = 0
KGU1 240800Z 27021G30KT 16/M21 A3001 RMK A01 T01601208  RH  006%=      5-min Rain = 0
KGU1 240801Z 27021G28KT 16/M21 A3001 RMK A01 T01591209  RH  006%=      5-min Rain = 0
KGU1 240802Z 27024G29KT 16/M21 A3001 RMK A01 T01581208  RH  007%=      5-min Rain = 0
KGU1 240803Z 27021G28KT 16/M21 A3001 RMK A01 T01571209  RH  007%=      5-min Rain = 0
KGU1 240804Z 28024G34KT 16/M21 A3001 RMK A01 T01571208  RH  007%=      5-min Rain = 0
KGU1 240805Z 28024G30KT 16/M21 A3001 RMK A01 T01571208  RH  007%=      5-min Rain = 0
KGU1 240806Z 27019G27KT 16/M21 A3001 RMK A01 T01581208  RH  007%=      5-min Rain = 0
KGU1 240807Z 27019G24KT 16/M21 A3001 RMK A01 T01581208  RH  007%=      5-min Rain = 0
KGU1 240808Z 27018G25KT 16/M21 A3002 RMK A01 T01571208  RH  007%=      5-min Rain = 0
KGU1 240809Z 27025G36KT 16/M21 A3001 RMK A01 T01571208  RH  007%=      5-min Rain = 0
KGU1 240810Z 27024G33KT 16/M21 A3001 RMK A01 T01571208  RH  007%=      5-min Rain = 0
KGU1 240811Z 28026G33KT 16/M21 A3001 RMK A01 T01591208  RH  006%=      5-min Rain = 0
KGU1 240812Z 28022G30KT 16/M21 A3001 RMK A01 T01601209  RH  006%=      5-min Rain = 0
KGU1 240813Z 27024G34KT 16/M21 A3001 RMK A01 T01601209  RH  006%=      5-min Rain = 0
KGU1 240814Z 27020G31KT 16/M21 A3001 RMK A01 T01601209  RH  006%=      5-min Rain = 0
KGU1 240815Z 27021G31KT 16/M21 A3001 RMK A01 T01591209  RH  006%=      5-min Rain = 0
KGU1 240816Z 27022G30KT 16/M21 A3001 RMK A01 T01591208  RH  006%=      5-min Rain = 0
KGU1 240817Z 27022G29KT 16/M21 A3001 RMK A01 T01591208  RH  006%=      5-min Rain = 0
KGU1 240818Z 28022G28KT 16/M21 A3001 RMK A01 T01581209  RH  006%=      5-min Rain = 0
KGU1 240819Z 26020G27KT 16/M21 A3001 RMK A01 T01581209  RH  006%=      5-min Rain = 0
KGU1 240820Z 27018G23KT 16/M21 A3001 RMK A01 T01581210  RH  006%=      5-min Rain = 0
KGU1 240821Z 26020G30KT 16/M21 A3001 RMK A01 T01581210  RH  006%=      5-min Rain = 0
KGU1 240822Z 27020G25KT 16/M21 A3001 RMK A01 T01591210  RH  006%=      5-min Rain = 0
KGU1 240823Z 26018G26KT 16/M21 A3001 RMK A01 T01591210  RH  006%=      5-min Rain = 0
KGU1 240824Z 27020G28KT 16/M21 A3001 RMK A01 T01591210  RH  006%=      5-min Rain = 0
KGU1 240825Z 27023G33KT 16/M21 A3001 RMK A01 T01581210  RH  006%=      5-min Rain = 0
KGU1 240826Z 27024G34KT 16/M21 A3001 RMK A01 T01591210  RH  006%=      5-min Rain = 0
KGU1 240827Z 27024G34KT 16/M21 A3001 RMK A01 T01601210  RH  006%=      5-min Rain = 0
KGU1 240828Z 28023G30KT 16/M21 A3001 RMK A01 T01611210  RH  006%=      5-min Rain = 0
KGU1 240829Z 28023G36KT 16/M21 A3001 RMK A01 T01611210  RH  006%=      5-min Rain = 0
KGU1 240830Z 28027G35KT 16/M21 A3001 RMK A01 T01601210  RH  006%=      5-min Rain = 0
KGU1 240831Z 27018G26KT 16/M21 A3001 RMK A01 T01621211  RH  006%=      5-min Rain = 0
KGU1 240832Z 26021G31KT 16/M21 A3001 RMK A01 T01611211  RH  006%=      5-min Rain = 0
KGU1 240833Z 26019G26KT 16/M21 A3001 RMK A01 T01601212  RH  006%=      5-min Rain = 0
KGU1 240834Z 27023G30KT 16/M21 A3001 RMK A01 T01601212  RH  006%=      5-min Rain = 0
KGU1 240835Z 26020G28KT 16/M21 A3001 RMK A01 T01611212  RH  006%=      5-min Rain = 0
KGU1 240836Z 26019G28KT 16/M21 A3001 RMK A01 T01611213  RH  006%=      5-min Rain = 0
KGU1 240837Z 26018G24KT 16/M21 A3001 RMK A01 T01601212  RH  006%=      5-min Rain = 0
KGU1 240838Z 26018G28KT 16/M21 A3001 RMK A01 T01591212  RH  006%=      5-min Rain = 0
KGU1 240839Z 27023G30KT 16/M21 A3001 RMK A01 T01581213  RH  006%=      5-min Rain = 0
KGU1 240840Z 27019G27KT 16/M21 A3001 RMK A01 T01591213  RH  006%=      5-min Rain = 0
KGU1 240841Z 26019G31KT 16/M21 A3001 RMK A01 T01591213  RH  006%=      5-min Rain = 0
KGU1 240842Z 27023G33KT 16/M21 A3001 RMK A01 T01591213  RH  006%=      5-min Rain = 0
KGU1 240843Z 26021G32KT 16/M21 A3001 RMK A01 T01591213  RH  006%=      5-min Rain = 0
KGU1 240844Z 25027G45KT 16/M21 A30 RMK A01 T01591213  RH  006%=      5-min Rain = 0
KGU1 240845Z 26025G38KT 16/M21 A3001 RMK A01 T01611213  RH  006%=      5-min Rain = 0
KGU1 240846Z 25022G31KT 16/M21 A3001 RMK A01 T01611213  RH  006%=      5-min Rain = 0
KGU1 240847Z 25021G32KT 16/M21 A3001 RMK A01 T01601213  RH  006%=      5-min Rain = 0
KGU1 240848Z 26021G28KT 16/M21 A3001 RMK A01 T01601213  RH  006%=      5-min Rain = 0
KGU1 240849Z 26024G34KT 16/M21 A3001 RMK A01 T01581212  RH  006%=      5-min Rain = 0
KGU1 240850Z 25023G35KT 16/M21 A3001 RMK A01 T01581214  RH  006%=      5-min Rain = 0
KGU1 240851Z 27027G36KT 16/M21 A3001 RMK A01 T01591214  RH  006%=      5-min Rain = 0
KGU1 240852Z 26024G37KT 16/M21 A3001 RMK A01 T01591214  RH  006%=      5-min Rain = 0
KGU1 240853Z 26023G32KT 16/M21 A3001 RMK A01 T01591213  RH  006%=      5-min Rain = 0
KGU1 240854Z 26019G31KT 16/M21 A3001 RMK A01 T01591213  RH  006%=      5-min Rain = 0
KGU1 240855Z 27020G29KT 16/M21 A3001 RMK A01 T01581214  RH  006%=      5-min Rain = 0
KGU1 240856Z 26017G24KT 16/M21 A3001 RMK A01 T01571213  RH  006%=      5-min Rain = 0
KGU1 240857Z 26016G22KT 16/M21 A3001 RMK A01 T01551212  RH  006%=      5-min Rain = 0
KGU1 240858Z 26019G29KT 15/M21 A3001 RMK A01 T01541212  RH  006%=      5-min Rain = 0
KGU1 240859Z 26023G30KT 15/M21 A3001 RMK A01 T01541212  RH  006%=      5-min Rain = 0
KGU1 240900Z 26023G30KT 16/M21 A3001 RMK A01 T01551212  RH  006%=      5-min Rain = 0
KGU1 240901Z 26022G31KT 16/M21 A3001 RMK A01 T01571213  RH  006%=      5-min Rain = 0
KGU1 240902Z 26022G30KT 16/M21 A3001 RMK A01 T01581214  RH  006%=      5-min Rain = 0
KGU1 240903Z 27021G30KT 16/M21 A3001 RMK A01 T01581214  RH  006%=      5-min Rain = 0
KGU1 240904Z 27019G25KT 16/M21 A3001 RMK A01 T01571214  RH  006%=      5-min Rain = 0
KGU1 240905Z 26018G29KT 16/M21 A3001 RMK A01 T01561214  RH  006%=      5-min Rain = 0
KGU1 240906Z 26019G29KT 16/M21 A3001 RMK A01 T01551213  RH  006%=      5-min Rain = 0
KGU1 240907Z 27021G29KT 15/M21 A3001 RMK A01 T01541212  RH  006%=      5-min Rain = 0
KGU1 240908Z 28024G30KT 15/M21 A3001 RMK A01 T01531212  RH  006%=      5-min Rain = 0
KGU1 240909Z 26018G28KT 15/M21 A3001 RMK A01 T01531212  RH  006%=      5-min Rain = 0
KGU1 240910Z 27020G26KT 15/M21 A3001 RMK A01 T01531213  RH  006%=      5-min Rain = 0
KGU1 240911Z 27017G24KT 15/M21 A3001 RMK A01 T01531212  RH  007%=      5-min Rain = 0
KGU1 240912Z 28020G27KT 15/M21 A3001 RMK A01 T01511212  RH  007%=      5-min Rain = 0
KGU1 240913Z 26021G27KT 15/M21 A3001 RMK A01 T01511213  RH  007%=      5-min Rain = 0
KGU1 240914Z 27019G28KT 15/M21 A3001 RMK A01 T01511214  RH  006%=      5-min Rain = 0
KGU1 240915Z 27019G25KT 15/M21 A3001 RMK A01 T01521213  RH  006%=      5-min Rain = 0
KGU1 240916Z 27022G29KT 15/M21 A3001 RMK A01 T01521214  RH  006%=      5-min Rain = 0
KGU1 240917Z 28021G27KT 15/M21 A3001 RMK A01 T01521214  RH  006%=      5-min Rain = 0
KGU1 240918Z 27019G27KT 15/M22 A3001 RMK A01 T01521216  RH  006%=      5-min Rain = 0
KGU1 240919Z 27018G23KT 15/M22 A3001 RMK A01 T01521217  RH  006%=      5-min Rain = 0
KGU1 240920Z 27015G21KT 15/M22 A3001 RMK A01 T01521217  RH  006%=      5-min Rain = 0
KGU1 240921Z 27016G22KT 15/M22 A3001 RMK A01 T01511217  RH  006%=      5-min Rain = 0
KGU1 240922Z 27021G30KT 15/M22 A3001 RMK A01 T01501217  RH  006%=      5-min Rain = 0
KGU1 240923Z 27023G29KT 15/M22 A3001 RMK A01 T01511217  RH  006%=      5-min Rain = 0
KGU1 240924Z 28022G30KT 15/M22 A3001 RMK A01 T01531218  RH  006%=      5-min Rain = 0
KGU1 240925Z 27022G32KT 15/M22 A3001 RMK A01 T01541219  RH  006%=      5-min Rain = 0
KGU1 240926Z 28024G36KT 15/M22 A3001 RMK A01 T01541220  RH  006%=      5-min Rain = 0
KGU1 240927Z 27021G29KT 16/M22 A3001 RMK A01 T01561221  RH  006%=      5-min Rain = 0
KGU1 240928Z 26024G37KT 16/M22 A3001 RMK A01 T01561221  RH  006%=      5-min Rain = 0
KGU1 240929Z 26021G27KT 16/M22 A3001 RMK A01 T01561223  RH  006%=      5-min Rain = 0
KGU1 240930Z 26018G24KT 16/M22 A3001 RMK A01 T01571222  RH  006%=      5-min Rain = 0
KGU1 240931Z 28019G30KT 16/M22 A3001 RMK A01 T01551222  RH  006%=      5-min Rain = 0
KGU1 240932Z 27025G32KT 15/M22 A3001 RMK A01 T01541223  RH  006%=      5-min Rain = 0
KGU1 240933Z 27021G30KT 15/M22 A3001 RMK A01 T01541223  RH  006%=      5-min Rain = 0
KGU1 240934Z 27016G23KT 16/M22 A3001 RMK A01 T01551223  RH  006%=      5-min Rain = 0
KGU1 240935Z 26017G26KT 15/M22 A3001 RMK A01 T01541223  RH  006%=      5-min Rain = 0
KGU1 240936Z 27021G30KT 15/M22 A3001 RMK A01 T01531224  RH  006%=      5-min Rain = 0
KGU1 240937Z 27017G24KT 15/M22 A3001 RMK A01 T01541224  RH  006%=      5-min Rain = 0
KGU1 240938Z 27019G27KT 15/M22 A3001 RMK A01 T01531224  RH  006%=      5-min Rain = 0
KGU1 240939Z 26017G27KT 15/M23 A3001 RMK A01 T01521225  RH  006%=      5-min Rain = 0
KGU1 240940Z 26020G28KT 15/M22 A3001 RMK A01 T01531224  RH  006%=      5-min Rain = 0
KGU1 240941Z 27017G22KT 15/M22 A3001 RMK A01 T01531224  RH  006%=      5-min Rain = 0
KGU1 240942Z 26021G28KT 15/M22 A3001 RMK A01 T01521224  RH  006%=      5-min Rain = 0
KGU1 240943Z 28018G32KT 15/M23 A3001 RMK A01 T01521225  RH  006%=      5-min Rain = 0
KGU1 240944Z 26019G30KT 15/M23 A3001 RMK A01 T01521225  RH  006%=      5-min Rain = 0
KGU1 240945Z 26020G28KT 15/M23 A3001 RMK A01 T01521225  RH  006%=      5-min Rain = 0
KGU1 240946Z 26017G27KT 15/M23 A3001 RMK A01 T01521225  RH  006%=      5-min Rain = 0
KGU1 240947Z 27019G28KT 15/M23 A3001 RMK A01 T01521225  RH  006%=      5-min Rain = 0
KGU1 240948Z 27020G26KT 15/M23 A3001 RMK A01 T01521225  RH  006%=      5-min Rain = 0
KGU1 240949Z 26020G27KT 15/M23 A3001 RMK A01 T01521225  RH  006%=      5-min Rain = 0
KGU1 240950Z 27019G25KT 15/M22 A3001 RMK A01 T01521224  RH  006%=      5-min Rain = 0
KGU1 240951Z 26019G26KT 15/M23 A3001 RMK A01 T01521225  RH  006%=      5-min Rain = 0
KGU1 240952Z 27017G24KT 15/M23 A3001 RMK A01 T01521226  RH  006%=      5-min Rain = 0
KGU1 240953Z 27020G26KT 15/M23 A3001 RMK A01 T01521226  RH  006%=      5-min Rain = 0
KGU1 240954Z 27018G28KT 15/M23 A3001 RMK A01 T01521226  RH  006%=      5-min Rain = 0
KGU1 240955Z 26021G31KT 15/M23 A3001 RMK A01 T01521227  RH  006%=      5-min Rain = 0
KGU1 240956Z 27020G29KT 15/M23 A3001 RMK A01 T01521227  RH  006%=      5-min Rain = 0
KGU1 240957Z 28019G32KT 15/M23 A3001 RMK A01 T01521226  RH  006%=      5-min Rain = 0
KGU1 240958Z 26023G35KT 15/M23 A3001 RMK A01 T01521227  RH  006%=      5-min Rain = 0
KGU1 240959Z 26022G30KT 15/M23 A3001 RMK A01 T01541228  RH  006%=      5-min Rain = 0
KGU1 241000Z 28023G31KT 16/M23 A3001 RMK A01 T01551228  RH  006%=      5-min Rain = 0
KGU1 241001Z 27022G30KT 16/M23 A3001 RMK A01 T01551228  RH  006%=      5-min Rain = 0
KGU1 241002Z 27023G28KT 15/M23 A3001 RMK A01 T01541228  RH  006%=      5-min Rain = 0
KGU1 241003Z 27023G31KT 15/M23 A3001 RMK A01 T01541228  RH  006%=      5-min Rain = 0
KGU1 241004Z 27021G30KT 15/M23 A3001 RMK A01 T01541229  RH  006%=      5-min Rain = 0
KGU1 241005Z 27019G25KT 15/M23 A3001 RMK A01 T01531228  RH  006%=      5-min Rain = 0
KGU1 241006Z 27021G30KT 15/M23 A3001 RMK A01 T01531228  RH  006%=      5-min Rain = 0
KGU1 241007Z 28022G29KT 15/M23 A3001 RMK A01 T01521228  RH  006%=      5-min Rain = 0
KGU1 241008Z 27019G28KT 15/M23 A3001 RMK A01 T01531227  RH  006%=      5-min Rain = 0
KGU1 241009Z 27023G30KT 15/M23 A3001 RMK A01 T01521227  RH  006%=      5-min Rain = 0
KGU1 241010Z 27022G28KT 15/M23 A3001 RMK A01 T01531228  RH  006%=      5-min Rain = 0
KGU1 241011Z 27021G30KT 15/M23 A3001 RMK A01 T01531228  RH  006%=      5-min Rain = 0
KGU1 241012Z 28023G30KT 15/M23 A3001 RMK A01 T01531228  RH  006%=      5-min Rain = 0
KGU1 241013Z 26021G28KT 15/M23 A3001 RMK A01 T01531228  RH  006%=      5-min Rain = 0
KGU1 241014Z 27020G25KT 15/M23 A3001 RMK A01 T01531228  RH  006%=      5-min Rain = 0
KGU1 241015Z 27021G28KT 15/M23 A3001 RMK A01 T01531227  RH  006%=      5-min Rain = 0
KGU1 241016Z 27020G30KT 15/M23 A3001 RMK A01 T01531227  RH  006%=      5-min Rain = 0
KGU1 241017Z 27018G28KT 15/M23 A3001 RMK A01 T01531227  RH  006%=      5-min Rain = 0
KGU1 241018Z 27021G29KT 15/M23 A3001 RMK A01 T01521227  RH  006%=      5-min Rain = 0
KGU1 241019Z 26020G29KT 15/M23 A3001 RMK A01 T01511227  RH  006%=      5-min Rain = 0
KGU1 241020Z 27018G27KT 15/M23 A3001 RMK A01 T01521228  RH  006%=      5-min Rain = 0
KGU1 241021Z 26015G22KT 15/M23 A3001 RMK A01 T01521228  RH  006%=      5-min Rain = 0
KGU1 241022Z 26017G24KT 15/M23 A3001 RMK A01 T01511229  RH  006%=      5-min Rain = 0
KGU1 241023Z 27024G31KT 15/M23 A3001 RMK A01 T01511228  RH  006%=      5-min Rain = 0
KGU1 241024Z 27023G28KT 15/M23 A3002 RMK A01 T01521228  RH  006%=      5-min Rain = 0
KGU1 241025Z 27019G26KT 15/M23 A3002 RMK A01 T01521228  RH  006%=      5-min Rain = 0
KGU1 241026Z 27019G24KT 15/M23 A3002 RMK A01 T01511228  RH  006%=      5-min Rain = 0
KGU1 241027Z 28021G30KT 15/M23 A3002 RMK A01 T01501227  RH  006%=      5-min Rain = 0
KGU1 241028Z 27020G29KT 15/M23 A3002 RMK A01 T01501227  RH  006%=      5-min Rain = 0
KGU1 241029Z 27019KT 15/M23 A3002 RMK A01 T01491227  RH  006%=      5-min Rain = 0
KGU1 241030Z 27019G24KT 15/M23 A3002 RMK A01 T01491226  RH  006%=      5-min Rain = 0
KGU1 241031Z 28018G27KT 15/M23 A3002 RMK A01 T01491225  RH  006%=      5-min Rain = 0
KGU1 241032Z 27020G27KT 15/M23 A3002 RMK A01 T01491225  RH  006%=      5-min Rain = 0
KGU1 241033Z 27016G23KT 15/M23 A3002 RMK A01 T01491225  RH  006%=      5-min Rain = 0
KGU1 241034Z 27017G25KT 15/M22 A3002 RMK A01 T01481224  RH  006%=      5-min Rain = 0
KGU1 241035Z 27019G25KT 15/M22 A3002 RMK A01 T01471224  RH  006%=      5-min Rain = 0
KGU1 241036Z 27015G23KT 15/M22 A3002 RMK A01 T01481223  RH  006%=      5-min Rain = 0
KGU1 241037Z 27021G29KT 15/M22 A3002 RMK A01 T01481223  RH  006%=      5-min Rain = 0
KGU1 241038Z 27022G28KT 15/M22 A3002 RMK A01 T01481224  RH  006%=      5-min Rain = 0
KGU1 241039Z 27021G29KT 15/M22 A3002 RMK A01 T01491224  RH  006%=      5-min Rain = 0
KGU1 241040Z 27021G27KT 15/M22 A3002 RMK A01 T01501224  RH  006%=      5-min Rain = 0
KGU1 241041Z 27021G30KT 15/M22 A3002 RMK A01 T01501224  RH  006%=      5-min Rain = 0
KGU1 241042Z 26017KT 15/M22 A3003 RMK A01 T01491224  RH  006%=      5-min Rain = 0
KGU1 241043Z 26017G23KT 15/M22 A3003 RMK A01 T01481224  RH  006%=      5-min Rain = 0
KGU1 241044Z 27018G25KT 15/M22 A3003 RMK A01 T01481224  RH  006%=      5-min Rain = 0
KGU1 241045Z 27022G29KT 15/M22 A3003 RMK A01 T01481224  RH  006%=      5-min Rain = 0
KGU1 241046Z 27022G28KT 15/M22 A3003 RMK A01 T01501223  RH  006%=      5-min Rain = 0
KGU1 241047Z 27018G24KT 15/M22 A3003 RMK A01 T01511223  RH  006%=      5-min Rain = 0
KGU1 241048Z 27017G25KT 15/M22 A3003 RMK A01 T01501224  RH  006%=      5-min Rain = 0
KGU1 241049Z 28025G34KT 15/M22 A3003 RMK A01 T01481224  RH  006%=      5-min Rain = 0
KGU1 241050Z 28021G31KT 15/M22 A3003 RMK A01 T01491223  RH  006%=      5-min Rain = 0
KGU1 241051Z 27020G29KT 15/M22 A3003 RMK A01 T01501222  RH  006%=      5-min Rain = 0
KGU1 241052Z 27023G30KT 15/M22 A3003 RMK A01 T01501223  RH  006%=      5-min Rain = 0
KGU1 241053Z 28022G30KT 15/M22 A3003 RMK A01 T01501223  RH  006%=      5-min Rain = 0
KGU1 241054Z 28025G30KT 15/M22 A3003 RMK A01 T01501223  RH  006%=      5-min Rain = 0
KGU1 241055Z 28020G26KT 15/M22 A3003 RMK A01 T01511223  RH  006%=      5-min Rain = 0
KGU1 241056Z 27020G30KT 15/M22 A3003 RMK A01 T01511223  RH  006%=      5-min Rain = 0
KGU1 241057Z 28020G28KT 15/M22 A3003 RMK A01 T01501223  RH  006%=      5-min Rain = 0
KGU1 241058Z 28020G27KT 15/M22 A3003 RMK A01 T01501223  RH  006%=      5-min Rain = 0
KGU1 241059Z 27018G25KT 15/M22 A3003 RMK A01 T01491223  RH  006%=      5-min Rain = 0
KGU1 241100Z 28023G31KT 15/M22 A3003 RMK A01 T01491223  RH  006%=      5-min Rain = 0
KGU1 241101Z 29022G30KT 15/M22 A3003 RMK A01 T01491222  RH  006%=      5-min Rain = 0
KGU1 241102Z 28023G30KT 15/M22 A3003 RMK A01 T01491222  RH  006%=      5-min Rain = 0
KGU1 241103Z 28024G33KT 15/M22 A3003 RMK A01 T01491222  RH  006%=      5-min Rain = 0
KGU1 241104Z 27019G27KT 15/M22 A3003 RMK A01 T01491221  RH  006%=      5-min Rain = 0
KGU1 241105Z 27017G24KT 15/M22 A3003 RMK A01 T01491221  RH  006%=      5-min Rain = 0
KGU1 241106Z 28020G28KT 15/M22 A3003 RMK A01 T01481222  RH  006%=      5-min Rain = 0
KGU1 241107Z 28022G29KT 15/M22 A3003 RMK A01 T01491221  RH  006%=      5-min Rain = 0
KGU1 241108Z 28020G29KT 15/M22 A3003 RMK A01 T01491221  RH  006%=      5-min Rain = 0
KGU1 241109Z 27021G26KT 15/M22 A3003 RMK A01 T01501221  RH  006%=      5-min Rain = 0
KGU1 241110Z 28017KT 15/M22 A3003 RMK A01 T01501221  RH  006%=      5-min Rain = 0
KGU1 241111Z 27016G23KT 15/M22 A3004 RMK A01 T01501221  RH  006%=      5-min Rain = 0
KGU1 241112Z 27020G27KT 15/M22 A3003 RMK A01 T01481221  RH  006%=      5-min Rain = 0
KGU1 241113Z 28022G29KT 15/M22 A3003 RMK A01 T01481221  RH  006%=      5-min Rain = 0
KGU1 241114Z 27017G23KT 15/M22 A3003 RMK A01 T01501221  RH  006%=      5-min Rain = 0
KGU1 241115Z 27018G24KT 15/M22 A3004 RMK A01 T01511221  RH  006%=      5-min Rain = 0
KGU1 241116Z 28017G25KT 15/M22 A3004 RMK A01 T01501221  RH  006%=      5-min Rain = 0
KGU1 241117Z 27017G25KT 15/M22 A3004 RMK A01 T01491222  RH  006%=      5-min Rain = 0
KGU1 241118Z 28022G29KT 15/M22 A3004 RMK A01 T01481222  RH  006%=      5-min Rain = 0
KGU1 241119Z 28021G29KT 15/M22 A3004 RMK A01 T01501221  RH  006%=      5-min Rain = 0
KGU1 241120Z 27019G26KT 15/M22 A3004 RMK A01 T01511221  RH  006%=      5-min Rain = 0
KGU1 241121Z 27019G26KT 15/M22 A3004 RMK A01 T01511222  RH  006%=      5-min Rain = 0
KGU1 241122Z 28017G25KT 15/M22 A3004 RMK A01 T01511222  RH  006%=      5-min Rain = 0
KGU1 241123Z 27021G27KT 15/M22 A3004 RMK A01 T01501222  RH  006%=      5-min Rain = 0
KGU1 241124Z 27019G24KT 15/M22 A3004 RMK A01 T01501222  RH  006%=      5-min Rain = 0
KGU1 241125Z 27017G25KT 15/M22 A3004 RMK A01 T01501221  RH  006%=      5-min Rain = 0
KGU1 241126Z 27019G24KT 15/M22 A3004 RMK A01 T01491222  RH  006%=      5-min Rain = 0
KGU1 241127Z 27019G30KT 15/M22 A3004 RMK A01 T01491221  RH  006%=      5-min Rain = 0
KGU1 241128Z 27019G28KT 15/M22 A3004 RMK A01 T01501220  RH  006%=      5-min Rain = 0
KGU1 241129Z 29019G25KT 15/M22 A3004 RMK A01 T01511220  RH  006%=      5-min Rain = 0
KGU1 241130Z 28017G22KT 15/M22 A3004 RMK A01 T01511220  RH  006%=      5-min Rain = 0
KGU1 241131Z 27017G24KT 15/M22 A3005 RMK A01 T01491221  RH  006%=      5-min Rain = 0
KGU1 241132Z 27020G27KT 15/M22 A3004 RMK A01 T01491221  RH  006%=      5-min Rain = 0
KGU1 241133Z 27018G25KT 15/M22 A3005 RMK A01 T01501220  RH  006%=      5-min Rain = 0
KGU1 241134Z 28016G22KT 15/M22 A3005 RMK A01 T01501221  RH  006%=      5-min Rain = 0
KGU1 241135Z 27018G24KT 15/M22 A3005 RMK A01 T01501221  RH  006%=      5-min Rain = 0
KGU1 241136Z 27018G24KT 15/M22 A3005 RMK A01 T01491221  RH  006%=      5-min Rain = 0
KGU1 241137Z 27018G24KT 15/M22 A3005 RMK A01 T01491221  RH  006%=      5-min Rain = 0
KGU1 241138Z 26015G25KT 15/M22 A3005 RMK A01 T01481222  RH  006%=      5-min Rain = 0
KGU1 241139Z 27017G24KT 15/M22 A3005 RMK A01 T01481222  RH  006%=      5-min Rain = 0
KGU1 241140Z 27019G24KT 15/M22 A3005 RMK A01 T01471222  RH  006%=      5-min Rain = 0
KGU1 241141Z 27019G25KT 15/M22 A3005 RMK A01 T01481222  RH  006%=      5-min Rain = 0
KGU1 241142Z 27019G25KT 15/M22 A3005 RMK A01 T01481222  RH  006%=      5-min Rain = 0
KGU1 241143Z 27017KT 15/M22 A3005 RMK A01 T01471222  RH  006%=      5-min Rain = 0
KGU1 241144Z 27014KT 15/M22 A3005 RMK A01 T01461222  RH  006%=      5-min Rain = 0
KGU1 241145Z 27018G26KT 14/M22 A3005 RMK A01 T01441221  RH  006%=      5-min Rain = 0
KGU1 241146Z 27021G29KT 15/M22 A3005 RMK A01 T01451221  RH  006%=      5-min Rain = 0
KGU1 241147Z 27018G23KT 15/M22 A3005 RMK A01 T01461220  RH  006%=      5-min Rain = 0
KGU1 241148Z 27018G30KT 15/M22 A3005 RMK A01 T01461220  RH  006%=      5-min Rain = 0
KGU1 241149Z 27017G25KT 15/M22 A3005 RMK A01 T01461220  RH  006%=      5-min Rain = 0
KGU1 241150Z 27019G30KT 15/M22 A3006 RMK A01 T01461219  RH  006%=      5-min Rain = 0
KGU1 241151Z 28020G35KT 15/M22 A3006 RMK A01 T01471219  RH  006%=      5-min Rain = 0
KGU1 241152Z 27016G21KT 15/M22 A3006 RMK A01 T01491218  RH  006%=      5-min Rain = 0
KGU1 241153Z 27016G23KT 15/M22 A3006 RMK A01 T01491218  RH  006%=      5-min Rain = 0
KGU1 241154Z 27018G30KT 15/M22 A3006 RMK A01 T01481219  RH  006%=      5-min Rain = 0
KGU1 241155Z 27018G24KT 15/M22 A3006 RMK A01 T01481219  RH  006%=      5-min Rain = 0
KGU1 241156Z 28016G25KT 15/M22 A3006 RMK A01 T01481220  RH  006%=      5-min Rain = 0
KGU1 241157Z 28016G26KT 15/M22 A3006 RMK A01 T01481220  RH  006%=      5-min Rain = 0
KGU1 241158Z 28021G29KT 15/M22 A3006 RMK A01 T01471220  RH  006%=      5-min Rain = 0
KGU1 241159Z 28017G22KT 15/M22 A3006 RMK A01 T01491219  RH  006%=      5-min Rain = 0
KGU1 241200Z 29015G24KT 15/M22 A3007 RMK A01 T01491219  RH  006%=      5-min Rain = 0
KGU1 241201Z 27019G26KT 15/M22 A3007 RMK A01 T01481220  RH  006%=      5-min Rain = 0
KGU1 241202Z 27020G25KT 15/M22 A3006 RMK A01 T01481220  RH  006%=      5-min Rain = 0
KGU1 241203Z 28018G25KT 15/M22 A3007 RMK A01 T01501219  RH  006%=      5-min Rain = 0
KGU1 241204Z 28014G20KT 15/M22 A3007 RMK A01 T01501220  RH  006%=      5-min Rain = 0
KGU1 241205Z 27018G23KT 15/M22 A3007 RMK A01 T01491220  RH  006%=      5-min Rain = 0
KGU1 241206Z 26021G28KT 15/M22 A3006 RMK A01 T01481220  RH  006%=      5-min Rain = 0
KGU1 241207Z 27019G26KT 15/M22 A3007 RMK A01 T01491219  RH  006%=      5-min Rain = 0
KGU1 241208Z 28016KT 15/M22 A3007 RMK A01 T01501219  RH  006%=      5-min Rain = 0
KGU1 241209Z 27014G19KT 15/M22 A3007 RMK A01 T01501220  RH  006%=      5-min Rain = 0
KGU1 241210Z 27016KT 15/M22 A3007 RMK A01 T01481221  RH  006%=      5-min Rain = 0
KGU1 241211Z 27016G25KT 15/M22 A3007 RMK A01 T01471220  RH  006%=      5-min Rain = 0
KGU1 241212Z 27018G24KT 15/M22 A3007 RMK A01 T01471219  RH  006%=      5-min Rain = 0
KGU1 241213Z 28015G20KT 15/M22 A3007 RMK A01 T01481218  RH  006%=      5-min Rain = 0
KGU1 241214Z 28015G24KT 15/M22 A3007 RMK A01 T01481219  RH  006%=      5-min Rain = 0
KGU1 241215Z 27014G20KT 15/M22 A3007 RMK A01 T01481219  RH  006%=      5-min Rain = 0
KGU1 241216Z 27014G20KT 15/M22 A3007 RMK A01 T01471219  RH  006%=      5-min Rain = 0
KGU1 241217Z 27016G21KT 15/M22 A3007 RMK A01 T01471219  RH  006%=      5-min Rain = 0
KGU1 241218Z 27012G17KT 15/M22 A3007 RMK A01 T01471219  RH  006%=      5-min Rain = 0
KGU1 241219Z 27013KT 15/M22 A3007 RMK A01 T01471219  RH  006%=      5-min Rain = 0
KGU1 241220Z 27017G22KT 15/M22 A3007 RMK A01 T01461219  RH  006%=      5-min Rain = 0
KGU1 241221Z 28014G21KT 15/M22 A3007 RMK A01 T01461218  RH  006%=      5-min Rain = 0
KGU1 241222Z 28014G24KT 15/M22 A3007 RMK A01 T01461218  RH  006%=      5-min Rain = 0
KGU1 241223Z 27011G16KT 15/M22 A3007 RMK A01 T01461218  RH  006%=      5-min Rain = 0
KGU1 241224Z 28012G18KT 15/M22 A3007 RMK A01 T01451218  RH  007%=      5-min Rain = 0
KGU1 241225Z 28012KT 15/M22 A3007 RMK A01 T01451217  RH  007%=      5-min Rain = 0
KGU1 241226Z 28010KT 14/M22 A3008 RMK A01 T01441217  RH  007%=      5-min Rain = 0
KGU1 241227Z 28010KT 14/M22 A3008 RMK A01 T01431218  RH  007%=      5-min Rain = 0
KGU1 241228Z 27010KT 14/M22 A3008 RMK A01 T01421218  RH  007%=      5-min Rain = 0
KGU1 241229Z 28008KT 14/M22 A3008 RMK A01 T01401218  RH  007%=      5-min Rain = 0
KGU1 241230Z 27010G15KT 14/M22 A3008 RMK A01 T01381218  RH  007%=      5-min Rain = 0
KGU1 241231Z 27010KT 14/M22 A3008 RMK A01 T01381218  RH  007%=      5-min Rain = 0
KGU1 241232Z 28012KT 14/M22 A3008 RMK A01 T01381217  RH  007%=      5-min Rain = 0
KGU1 241233Z 28011KT 14/M22 A3008 RMK A01 T01381217  RH  007%=      5-min Rain = 0
KGU1 241234Z 28009KT 14/M22 A3008 RMK A01 T01381218  RH  007%=      5-min Rain = 0
KGU1 241235Z 27011KT 14/M22 A3008 RMK A01 T01371218  RH  007%=      5-min Rain = 0
KGU1 241236Z 28012G17KT 14/M22 A3008 RMK A01 T01371217  RH  007%=      5-min Rain = 0
KGU1 241237Z 29013G18KT 14/M22 A3008 RMK A01 T01381216  RH  007%=      5-min Rain = 0
KGU1 241238Z 29012KT 14/M22 A3008 RMK A01 T01391215  RH  007%=      5-min Rain = 0
KGU1 241239Z 29011G16KT 14/M22 A3008 RMK A01 T01401216  RH  007%=      5-min Rain = 0
KGU1 241240Z 28011KT 14/M22 A3008 RMK A01 T01401216  RH  007%=      5-min Rain = 0
KGU1 241241Z 28010KT 14/M22 A3008 RMK A01 T01401216  RH  007%=      5-min Rain = 0
KGU1 241242Z 29014G19KT 14/M22 A3008 RMK A01 T01401217  RH  007%=      5-min Rain = 0
KGU1 241243Z 30018G26KT 14/M22 A3008 RMK A01 T01401217  RH  007%=      5-min Rain = 0
KGU1 241244Z 28010KT 14/M22 A3008 RMK A01 T01431216  RH  007%=      5-min Rain = 0
KGU1 241245Z 28009KT 14/M22 A3008 RMK A01 T01421217  RH  007%=      5-min Rain = 0
KGU1 241246Z 28010KT 14/M22 A3008 RMK A01 T01391219  RH  007%=      5-min Rain = 0
KGU1 241247Z 27011KT 14/M22 A3008 RMK A01 T01361218  RH  007%=      5-min Rain = 0
KGU1 241248Z 27012KT 14/M22 A3008 RMK A01 T01351218  RH  007%=      5-min Rain = 0
KGU1 241249Z 29011KT 14/M22 A3008 RMK A01 T01371217  RH  007%=      5-min Rain = 0
KGU1 241250Z 28010KT 14/M22 A3008 RMK A01 T01381217  RH  007%=      5-min Rain = 0
KGU1 241251Z 27010KT 14/M22 A3008 RMK A01 T01381218  RH  007%=      5-min Rain = 0
KGU1 241252Z 27009KT 14/M22 A3008 RMK A01 T01381218  RH  007%=      5-min Rain = 0
KGU1 241253Z 29014G19KT 14/M22 A3008 RMK A01 T01381218  RH  007%=      5-min Rain = 0
KGU1 241254Z 27010KT 14/M22 A3008 RMK A01 T01401217  RH  007%=      5-min Rain = 0
KGU1 241255Z 28009KT 14/M22 A3008 RMK A01 T01411218  RH  007%=      5-min Rain = 0
KGU1 241256Z 28009KT 14/M22 A3009 RMK A01 T01401218  RH  007%=      5-min Rain = 0
KGU1 241257Z 28009G14KT 14/M22 A3009 RMK A01 T01381218  RH  007%=      5-min Rain = 0
KGU1 241258Z 28011KT 14/M22 A3009 RMK A01 T01361218  RH  007%=      5-min Rain = 0
KGU1 241259Z 28012KT 14/M22 A3009 RMK A01 T01361218  RH  007%=      5-min Rain = 0
KGU1 241300Z 27012KT 14/M22 A3009 RMK A01 T01371217  RH  007%=      5-min Rain = 0
KGU1 241301Z 27011KT 14/M22 A3009 RMK A01 T01381218  RH  007%=      5-min Rain = 0
KGU1 241302Z 27011KT 14/M22 A3009 RMK A01 T01381218  RH  007%=      5-min Rain = 0
KGU1 241303Z 27012KT 14/M22 A3009 RMK A01 T01371218  RH  007%=      5-min Rain = 0
KGU1 241304Z 28015KT 14/M22 A3009 RMK A01 T01371218  RH  007%=      5-min Rain = 0
KGU1 241305Z 28013G18KT 14/M22 A3009 RMK A01 T01391218  RH  007%=      5-min Rain = 0
KGU1 241306Z 27014G21KT 14/M22 A3009 RMK A01 T01401218  RH  007%=      5-min Rain = 0
KGU1 241307Z 28016G22KT 14/M22 A3009 RMK A01 T01411218  RH  007%=      5-min Rain = 0
KGU1 241308Z 27013G19KT 14/M22 A3009 RMK A01 T01421219  RH  007%=      5-min Rain = 0
KGU1 241309Z 27015G21KT 14/M22 A3009 RMK A01 T01421219  RH  007%=      5-min Rain = 0
KGU1 241310Z 27016KT 14/M22 A3009 RMK A01 T01421219  RH  007%=      5-min Rain = 0
KGU1 241311Z 27018KT 14/M22 A3009 RMK A01 T01431218  RH  007%=      5-min Rain = 0
KGU1 241312Z 27015G20KT 14/M22 A3009 RMK A01 T01431218  RH  007%=      5-min Rain = 0
KGU1 241313Z 27012KT 14/M22 A3009 RMK A01 T01441218  RH  007%=      5-min Rain = 0
KGU1 241314Z 28014KT 14/M22 A3009 RMK A01 T01441219  RH  007%=      5-min Rain = 0
KGU1 241315Z 28013G18KT 14/M22 A3009 RMK A01 T01421219  RH  007%=      5-min Rain = 0
KGU1 241316Z 27012G17KT 14/M22 A3009 RMK A01 T01411219  RH  007%=      5-min Rain = 0
KGU1 241317Z 28011KT 14/M22 A3009 RMK A01 T01411218  RH  007%=      5-min Rain = 0
KGU1 241318Z 27011KT 14/M22 A3009 RMK A01 T01401219  RH  007%=      5-min Rain = 0
KGU1 241319Z 28009KT 14/M22 A3009 RMK A01 T01401218  RH  007%=      5-min Rain = 0
KGU1 241320Z 27014G19KT 14/M22 A3009 RMK A01 T01381218  RH  007%=      5-min Rain = 0
KGU1 241321Z 27011KT 14/M22 A301 RMK A01 T01381218  RH  007%=      5-min Rain = 0
KGU1 241322Z 27011KT 14/M22 A301 RMK A01 T01401218  RH  007%=      5-min Rain = 0
KGU1 241323Z 28010KT 14/M22 A301 RMK A01 T01391218  RH  007%=      5-min Rain = 0
KGU1 241324Z 28012G17KT 14/M22 A301 RMK A01 T01371218  RH  007%=      5-min Rain = 0
KGU1 241325Z 29012KT 14/M22 A301 RMK A01 T01371217  RH  007%=      5-min Rain = 0
KGU1 241326Z 28011KT 14/M22 A301 RMK A01 T01371217  RH  007%=      5-min Rain = 0
KGU1 241327Z 29012G18KT 14/M22 A3011 RMK A01 T01371217  RH  007%=      5-min Rain = 0
KGU1 241328Z 28009G15KT 14/M22 A3011 RMK A01 T01371217  RH  007%=      5-min Rain = 0
KGU1 241329Z 28009KT 14/M22 A3011 RMK A01 T01381217  RH  007%=      5-min Rain = 0
KGU1 241330Z 30011G22KT 14/M22 A3011 RMK A01 T01361218  RH  007%=      5-min Rain = 0
KGU1 241331Z 30014G21KT 14/M22 A3011 RMK A01 T01361218  RH  007%=      5-min Rain = 0
KGU1 241332Z 30013KT 14/M22 A3011 RMK A01 T01381217  RH  007%=      5-min Rain = 0
KGU1 241333Z 31016G22KT 14/M22 A3011 RMK A01 T01391218  RH  007%=      5-min Rain = 0
KGU1 241334Z 31017G22KT 14/M22 A3012 RMK A01 T01411218  RH  007%=      5-min Rain = 0
KGU1 241335Z 31014KT 14/M22 A3012 RMK A01 T01431218  RH  007%=      5-min Rain = 0
KGU1 241336Z 31011KT 14/M22 A3012 RMK A01 T01441219  RH  006%=      5-min Rain = 0
KGU1 241337Z 31014G19KT 14/M22 A3012 RMK A01 T01441219  RH  006%=      5-min Rain = 0
KGU1 241338Z 31015G22KT 14/M22 A3012 RMK A01 T01441219  RH  006%=      5-min Rain = 0
KGU1 241339Z 32015G20KT 14/M22 A3012 RMK A01 T01441219  RH  006%=      5-min Rain = 0
KGU1 241340Z 30017G27KT 15/M22 A3012 RMK A01 T01451219  RH  006%=      5-min Rain = 0
KGU1 241341Z 33013G30KT 15/M22 A3012 RMK A01 T01451219  RH  006%=      5-min Rain = 0
KGU1 241342Z 35006KT 15/M22 A3012 RMK A01 T01451219  RH  006%=      5-min Rain = 0
KGU1 241343Z 33011G18KT 14/M22 A3013 RMK A01 T01441219  RH  006%=      5-min Rain = 0
KGU1 241344Z 29012KT 14/M22 A3013 RMK A01 T01431220  RH  007%=      5-min Rain = 0
KGU1 241345Z 34010KT 14/M22 A3013 RMK A01 T01431220  RH  006%=      5-min Rain = 0
KGU1 241346Z 34005KT 14/M22 A3013 RMK A01 T01431220  RH  006%=      5-min Rain = 0
KGU1 241347Z 02005KT 14/M22 A3013 RMK A01 T01441220  RH  006%=      5-min Rain = 0
KGU1 241348Z 01004KT 14/M22 A3013 RMK A01 T01421217  RH  007%=      5-min Rain = 0
KGU1 241349Z 33006KT 14/M22 A3013 RMK A01 T01391218  RH  007%=      5-min Rain = 0
KGU1 241350Z 36007KT 14/M22 A3014 RMK A01 T01371217  RH  007%=      5-min Rain = 0
KGU1 241351Z 04006KT 14/M22 A3014 RMK A01 T01351215  RH  007%=      5-min Rain = 0
KGU1 241352Z 06006KT 13/M21 A3014 RMK A01 T01321211  RH  007%=      5-min Rain = 0
KGU1 241353Z 05003KT 13/M21 A3014 RMK A01 T01291210  RH  008%=      5-min Rain = 0
KGU1 241354Z 03003KT 13/M21 A3014 RMK A01 T01261209  RH  008%=      5-min Rain = 0
KGU1 241355Z 04004KT 13/M21 A3014 RMK A01 T01251209  RH  008%=      5-min Rain = 0
KGU1 241356Z 04005KT 12/M21 A3014 RMK A01 T01231208  RH  008%=      5-min Rain = 0
KGU1 241357Z 06006KT 12/M21 A3014 RMK A01 T01211207  RH  008%=      5-min Rain = 0
KGU1 241358Z 09003KT 12/M21 A3014 RMK A01 T01191207  RH  008%=      5-min Rain = 0
KGU1 241359Z 12003KT 12/M21 A3014 RMK A01 T01191207  RH  008%=      5-min Rain = 0
KGU1 241400Z 07002KT 12/M21 A3015 RMK A01 T01201206  RH  009%=      5-min Rain = 0
KGU1 241401Z 07004KT 12/M21 A3015 RMK A01 T01201205  RH  009%=      5-min Rain = 0
KGU1 241402Z 09006KT 12/M21 A3014 RMK A01 T01191205  RH  009%=      5-min Rain = 0
KGU1 241403Z 09006KT 12/M20 A3014 RMK A01 T01191204  RH  009%=      5-min Rain = 0
KGU1 241404Z 11008KT 12/M21 A3014 RMK A01 T01181205  RH  009%=      5-min Rain = 0
KGU1 241405Z 11006KT 12/M21 A3014 RMK A01 T01191206  RH  009%=      5-min Rain = 0
KGU1 241406Z 12005KT 12/M21 A3015 RMK A01 T01211206  RH  008%=      5-min Rain = 0
KGU1 241407Z 12003KT 12/M21 A3015 RMK A01 T01211205  RH  008%=      5-min Rain = 0
KGU1 241408Z 09002KT 12/M21 A3015 RMK A01 T01221205  RH  008%=      5-min Rain = 0
KGU1 241409Z 01002KT 12/M20 A3015 RMK A01 T01221204  RH  009%=      5-min Rain = 0
KGU1 241410Z 01003KT 12/M20 A3015 RMK A01 T01211203  RH  009%=      5-min Rain = 0
KGU1 241411Z 03003KT 12/M20 A3015 RMK A01 T01211204  RH  009%=      5-min Rain = 0
KGU1 241412Z 07004KT 12/M21 A3015 RMK A01 T01211205  RH  009%=      5-min Rain = 0
KGU1 241413Z 09007KT 12/M20 A3015 RMK A01 T01211203  RH  009%=      5-min Rain = 0
KGU1 241414Z 11006KT 12/M20 A3015 RMK A01 T01221203  RH  009%=      5-min Rain = 0
KGU1 241415Z 11007KT 12/M20 A3015 RMK A01 T01231202  RH  009%=      5-min Rain = 0
KGU1 241416Z 10007KT 12/M20 A3015 RMK A01 T01231202  RH  009%=      5-min Rain = 0
KGU1 241417Z 10007KT 12/M20 A3015 RMK A01 T01231202  RH  009%=      5-min Rain = 0
KGU1 241418Z 09004KT 12/M20 A3015 RMK A01 T01241203  RH  008%=      5-min Rain = 0
KGU1 241419Z 06003KT 13/M20 A3015 RMK A01 T01251204  RH  008%=      5-min Rain = 0
KGU1 241420Z 04004KT 13/M20 A3016 RMK A01 T01261203  RH  008%=      5-min Rain = 0
KGU1 241421Z 02004KT 13/M20 A3016 RMK A01 T01261203  RH  008%=      5-min Rain = 0
KGU1 241422Z 01003KT 13/M20 A3016 RMK A01 T01251201  RH  009%=      5-min Rain = 0
KGU1 241423Z 01004KT 13/M20 A3016 RMK A01 T01251199  RH  009%=      5-min Rain = 0
KGU1 241424Z 03005KT 13/M20 A3016 RMK A01 T01251200  RH  009%=      5-min Rain = 0
KGU1 241425Z 03004KT 12/M20 A3016 RMK A01 T01241202  RH  009%=      5-min Rain = 0
KGU1 241426Z 04006KT 12/M20 A3017 RMK A01 T01241202  RH  009%=      5-min Rain = 0
KGU1 241427Z 07007KT 12/M20 A3017 RMK A01 T01241199  RH  009%=      5-min Rain = 0
KGU1 241428Z 08009KT 12/M20 A3017 RMK A01 T01241195  RH  009%=      5-min Rain = 0
KGU1 241429Z 09009KT 12/M19 A3017 RMK A01 T01191191  RH  010%=      5-min Rain = 0
KGU1 241430Z 08010KT 11/M19 A3018 RMK A01 T01111191  RH  010%=      5-min Rain = 0
KGU1 241431Z 08010KT 10/M19 A3018 RMK A01 T01031191  RH  011%=      5-min Rain = 0
KGU1 241432Z 08010KT 10/M19 A3018 RMK A01 T00991188  RH  011%=      5-min Rain = 0
KGU1 241433Z 08008KT 10/M19 A3018 RMK A01 T00961187  RH  012%=      5-min Rain = 0
KGU1 241434Z 07006KT 09/M19 A3018 RMK A01 T00941186  RH  012%=      5-min Rain = 0
KGU1 241435Z 06003KT 09/M18 A3018 RMK A01 T00941184  RH  012%=      5-min Rain = 0
KGU1 241436Z 05005KT 09/M19 A3018 RMK A01 T00941186  RH  012%=      5-min Rain = 0
KGU1 241437Z 04003KT 10/M19 A3018 RMK A01 T00951190  RH  012%=      5-min Rain = 0
KGU1 241438Z 03004KT 10/M19 A3018 RMK A01 T00951190  RH  012%=      5-min Rain = 0
KGU1 241439Z 04003KT 10/M19 A3018 RMK A01 T00961189  RH  012%=      5-min Rain = 0
KGU1 241440Z 05004KT 10/M19 A3018 RMK A01 T00971189  RH  011%=      5-min Rain = 0
KGU1 241441Z 06003KT 10/M19 A3018 RMK A01 T00981189  RH  011%=      5-min Rain = 0
KGU1 241442Z 07003KT 10/M19 A3018 RMK A01 T00991188  RH  011%=      5-min Rain = 0
KGU1 241443Z 06004KT 10/M19 A3018 RMK A01 T01001189  RH  011%=      5-min Rain = 0
KGU1 241444Z 08004KT 10/M19 A3018 RMK A01 T01011192  RH  011%=      5-min Rain = 0
KGU1 241445Z 13003KT 10/M19 A3018 RMK A01 T01011191  RH  011%=      5-min Rain = 0
KGU1 241446Z 11004KT 10/M19 A3018 RMK A01 T01011187  RH  011%=      5-min Rain = 0
KGU1 241447Z 09005KT 10/M19 A3018 RMK A01 T01011187  RH  011%=      5-min Rain = 0
KGU1 241448Z 10010KT 10/M18 A3018 RMK A01 T01001175  RH  013%=      5-min Rain = 0
KGU1 241449Z 10009KT 09/M17 A3018 RMK A01 T00921168  RH  014%=      5-min Rain = 0
KGU1 241450Z 10009KT 09/M16 A3018 RMK A01 T00851164  RH  015%=      5-min Rain = 0
KGU1 241451Z 11009KT 08/M16 A3018 RMK A01 T00831162  RH  016%=      5-min Rain = 0
KGU1 241452Z 10008KT 08/M16 A3018 RMK A01 T00811160  RH  016%=      5-min Rain = 0
KGU1 241453Z 11009KT 08/M16 A3018 RMK A01 T00801157  RH  017%=      5-min Rain = 0
KGU1 241454Z 10008KT 08/M16 A3019 RMK A01 T00771156  RH  017%=      5-min Rain = 0
KGU1 241455Z 11007KT 08/M15 A3019 RMK A01 T00751154  RH  018%=      5-min Rain = 0
KGU1 241456Z 10007KT 08/M15 A3019 RMK A01 T00751151  RH  018%=      5-min Rain = 0
KGU1 241457Z 10008KT 07/M15 A3019 RMK A01 T00741149  RH  019%=      5-min Rain = 0
KGU1 241458Z 09010KT 07/M15 A3019 RMK A01 T00731147  RH  019%=      5-min Rain = 0
KGU1 241459Z 10008KT 07/M15 A3019 RMK A01 T00711145  RH  020%=      5-min Rain = 0
KGU1 241500Z 09009KT 07/M14 A3019 RMK A01 T00691143  RH  020%=      5-min Rain = 0
KGU1 241501Z 08007KT 07/M14 A302 RMK A01 T00681141  RH  021%=      5-min Rain = 0
KGU1 241502Z 08009KT 07/M14 A302 RMK A01 T00681137  RH  022%=      5-min Rain = 0
KGU1 241503Z 08007KT 07/M14 A302 RMK A01 T00661135  RH  022%=      5-min Rain = 0
KGU1 241504Z 08007KT 07/M13 A302 RMK A01 T00661133  RH  023%=      5-min Rain = 0
KGU1 241505Z 08007KT 07/M13 A302 RMK A01 T00661132  RH  023%=      5-min Rain = 0
KGU1 241506Z 09005KT 07/M13 A302 RMK A01 T00651131  RH  023%=      5-min Rain = 0
KGU1 241507Z 08006KT 07/M13 A302 RMK A01 T00651129  RH  023%=      5-min Rain = 0
KGU1 241508Z 09006KT 07/M13 A302 RMK A01 T00661129  RH  023%=      5-min Rain = 0
KGU1 241509Z 09006KT 07/M13 A302 RMK A01 T00671128  RH  023%=      5-min Rain = 0
KGU1 241510Z 09008KT 07/M13 A302 RMK A01 T00671125  RH  024%=      5-min Rain = 0
KGU1 241511Z 09007KT 07/M12 A302 RMK A01 T00671124  RH  024%=      5-min Rain = 0
KGU1 241512Z 07006KT 07/M12 A302 RMK A01 T00661123  RH  024%=      5-min Rain = 0
KGU1 241513Z 06005KT 07/M12 A302 RMK A01 T00661124  RH  024%=      5-min Rain = 0
KGU1 241514Z 05004KT 07/M12 A302 RMK A01 T00651123  RH  025%=      5-min Rain = 0
KGU1 241515Z 05004KT 07/M12 A302 RMK A01 T00661121  RH  025%=      5-min Rain = 0
KGU1 241516Z 04003KT 07/M12 A302 RMK A01 T00681124  RH  024%=      5-min Rain = 0
KGU1 241517Z 06003KT 07/M12 A302 RMK A01 T00681123  RH  024%=      5-min Rain = 0
KGU1 241518Z 08004KT 07/M12 A302 RMK A01 T00691119  RH  025%=      5-min Rain = 0
KGU1 241519Z 10004KT 07/M12 A302 RMK A01 T00681118  RH  025%=      5-min Rain = 0
KGU1 241520Z 07006KT 07/M12 A302 RMK A01 T00671119  RH  025%=      5-min Rain = 0
KGU1 241521Z 07005KT 07/M12 A302 RMK A01 T00681120  RH  025%=      5-min Rain = 0
KGU1 241522Z 08006KT 07/M12 A302 RMK A01 T00681119  RH  025%=      5-min Rain = 0
KGU1 241523Z 08007KT 07/M12 A302 RMK A01 T00681118  RH  025%=      5-min Rain = 0
KGU1 241524Z 07006KT 07/M12 A302 RMK A01 T00681118  RH  025%=      5-min Rain = 0
KGU1 241525Z 07004KT 07/M12 A302 RMK A01 T00691116  RH  025%=      5-min Rain = 0
KGU1 241526Z 08004KT 07/M11 A302 RMK A01 T00701114  RH  026%=      5-min Rain = 0
KGU1 241527Z 09005KT 07/M11 A3021 RMK A01 T00721113  RH  025%=      5-min Rain = 0
KGU1 241528Z 10006KT 07/M11 A3021 RMK A01 T00731113  RH  025%=      5-min Rain = 0
KGU1 241529Z 08005KT 07/M11 A3021 RMK A01 T00721112  RH  026%=      5-min Rain = 0
KGU1 241530Z 08005G10KT 07/M11 A3021 RMK A01 T00711111  RH  026%=      5-min Rain = 0
KGU1 241531Z 09008KT 07/M11 A3021 RMK A01 T00701109  RH  027%=      5-min Rain = 0
KGU1 241532Z 09007KT 07/M11 A3021 RMK A01 T00701106  RH  027%=      5-min Rain = 0
KGU1 241533Z 11006KT 07/M11 A3021 RMK A01 T00711105  RH  027%=      5-min Rain = 0
KGU1 241534Z 09007KT 07/M10 A3021 RMK A01 T00711102  RH  028%=      5-min Rain = 0
KGU1 241535Z 08007KT 07/M10 A3021 RMK A01 T00711100  RH  029%=      5-min Rain = 0
KGU1 241536Z 10008KT 07/M10 A3021 RMK A01 T00701096  RH  030%=      5-min Rain = 0
KGU1 241537Z 09006KT 07/M10 A3021 RMK A01 T00691095  RH  030%=      5-min Rain = 0
KGU1 241538Z 10007KT 07/M10 A3021 RMK A01 T00701095  RH  030%=      5-min Rain = 0
KGU1 241539Z 11006KT 07/M10 A3021 RMK A01 T00711095  RH  030%=      5-min Rain = 0
KGU1 241540Z 08007KT 07/M10 A3021 RMK A01 T00701096  RH  030%=      5-min Rain = 0
KGU1 241541Z 09008KT 07/M10 A3021 RMK A01 T00681098  RH  030%=      5-min Rain = 0
KGU1 241542Z 09007KT 07/M10 A3021 RMK A01 T00681099  RH  029%=      5-min Rain = 0
KGU1 241543Z 08007KT 07/M10 A3021 RMK A01 T00681100  RH  029%=      5-min Rain = 0
KGU1 241544Z 08006KT 07/M10 A3021 RMK A01 T00691100  RH  029%=      5-min Rain = 0
KGU1 241545Z 09007KT 07/M10 A3021 RMK A01 T00701098  RH  029%=      5-min Rain = 0
KGU1 241546Z 10007KT 07/M10 A3021 RMK A01 T00711098  RH  029%=      5-min Rain = 0
KGU1 241547Z 10005KT 07/M10 A3021 RMK A01 T00731099  RH  028%=      5-min Rain = 0
KGU1 241548Z 09006KT 07/M10 A3021 RMK A01 T00731099  RH  028%=      5-min Rain = 0
KGU1 241549Z 08007KT 07/M10 A3021 RMK A01 T00731099  RH  028%=      5-min Rain = 0
KGU1 241550Z 09005KT 07/M10 A3021 RMK A01 T00731101  RH  028%=      5-min Rain = 0
KGU1 241551Z 07006KT 07/M10 A3021 RMK A01 T00721101  RH  028%=      5-min Rain = 0
KGU1 241552Z 09005KT 07/M10 A3021 RMK A01 T00721101  RH  028%=      5-min Rain = 0
KGU1 241553Z 08006KT 07/M10 A3021 RMK A01 T00711102  RH  028%=      5-min Rain = 0
KGU1 241554Z 08006KT 07/M10 A3021 RMK A01 T00721101  RH  028%=      5-min Rain = 0
KGU1 241555Z 09007KT 08/M10 A3021 RMK A01 T00751101  RH  027%=      5-min Rain = 0
KGU1 241556Z 09005KT 07/M10 A3021 RMK A01 T00741102  RH  027%=      5-min Rain = 0
KGU1 241557Z 10007KT 07/M10 A3021 RMK A01 T00731101  RH  028%=      5-min Rain = 0
KGU1 241558Z 10006KT 07/M10 A3021 RMK A01 T00731100  RH  028%=      5-min Rain = 0
KGU1 241559Z 09006KT 07/M10 A3021 RMK A01 T00721099  RH  029%=      5-min Rain = 0
KGU1 241600Z 09007KT 07/M10 A3021 RMK A01 T00721098  RH  029%=      5-min Rain = 0
KGU1 241601Z 09006KT 07/M10 A3021 RMK A01 T00721098  RH  029%=      5-min Rain = 0
KGU1 241602Z 08007KT 07/M10 A3021 RMK A01 T00731097  RH  029%=      5-min Rain = 0
KGU1 241603Z 07006KT 08/M10 A3021 RMK A01 T00761098  RH  028%=      5-min Rain = 0
KGU1 241604Z 07006KT 08/M10 A3021 RMK A01 T00771099  RH  028%=      5-min Rain = 0
KGU1 241605Z 07007KT 08/M10 A3021 RMK A01 T00751101  RH  027%=      5-min Rain = 0
KGU1 241606Z 09007KT 07/M10 A3021 RMK A01 T00731100  RH  028%=      5-min Rain = 0
KGU1 241607Z 08008KT 07/M10 A3021 RMK A01 T00741098  RH  028%=      5-min Rain = 0
KGU1 241608Z 09006KT 07/M10 A3021 RMK A01 T00741098  RH  028%=      5-min Rain = 0
KGU1 241609Z 09009KT 08/M10 A3021 RMK A01 T00751095  RH  029%=      5-min Rain = 0
KGU1 241610Z 08007KT 08/M09 A3021 RMK A01 T00771094  RH  029%=      5-min Rain = 0
KGU1 241611Z 09007KT 08/M10 A3021 RMK A01 T00771096  RH  028%=      5-min Rain = 0
KGU1 241612Z 10008KT 08/M10 A3021 RMK A01 T00761097  RH  028%=      5-min Rain = 0
KGU1 241613Z 09008KT 08/M10 A3021 RMK A01 T00751098  RH  028%=      5-min Rain = 0
KGU1 241614Z 08007KT 08/M10 A3021 RMK A01 T00761099  RH  028%=      5-min Rain = 0
KGU1 241615Z 09006KT 08/M10 A3021 RMK A01 T00751099  RH  028%=      5-min Rain = 0
KGU1 241616Z 07007KT 08/M10 A3021 RMK A01 T00751099  RH  028%=      5-min Rain = 0
KGU1 241617Z 08006KT 08/M10 A3021 RMK A01 T00751100  RH  028%=      5-min Rain = 0
KGU1 241618Z 06006KT 08/M10 A3021 RMK A01 T00771098  RH  028%=      5-min Rain = 0
KGU1 241619Z 07007KT 08/M10 A3021 RMK A01 T00771097  RH  028%=      5-min Rain = 0
KGU1 241620Z 08006KT 08/M10 A3021 RMK A01 T00771095  RH  028%=      5-min Rain = 0
KGU1 241621Z 08008KT 08/M10 A3021 RMK A01 T00771095  RH  028%=      5-min Rain = 0
KGU1 241622Z 09006KT 08/M09 A3021 RMK A01 T00771094  RH  028%=      5-min Rain = 0
KGU1 241623Z 09005KT 08/M09 A3021 RMK A01 T00771094  RH  029%=      5-min Rain = 0
KGU1 241624Z 07005G10KT 08/M09 A3021 RMK A01 T00771094  RH  029%=      5-min Rain = 0
KGU1 241625Z 08009KT 08/M10 A3021 RMK A01 T00781096  RH  028%=      5-min Rain = 0
KGU1 241626Z 08008KT 08/M10 A3021 RMK A01 T00791096  RH  028%=      5-min Rain = 0
KGU1 241627Z 07007KT 08/M09 A3021 RMK A01 T00781093  RH  029%=      5-min Rain = 0
KGU1 241628Z 08007KT 08/M09 A3021 RMK A01 T00781092  RH  029%=      5-min Rain = 0
KGU1 241629Z 09007KT 08/M09 A3021 RMK A01 T00781091  RH  029%=      5-min Rain = 0
KGU1 241630Z 06007KT 08/M09 A3021 RMK A01 T00801093  RH  028%=      5-min Rain = 0
KGU1 241631Z 06007KT 08/M10 A3021 RMK A01 T00791095  RH  028%=      5-min Rain = 0
KGU1 241632Z 08007KT 08/M10 A3021 RMK A01 T00791095  RH  028%=      5-min Rain = 0
KGU1 241633Z 10005KT 08/M10 A3021 RMK A01 T00801096  RH  028%=      5-min Rain = 0
KGU1 241634Z 08006KT 08/M10 A3021 RMK A01 T00821095  RH  028%=      5-min Rain = 0
KGU1 241635Z 07009KT 08/M10 A3021 RMK A01 T00841096  RH  027%=      5-min Rain = 0
KGU1 241636Z 05008KT 08/M10 A3021 RMK A01 T00821098  RH  027%=      5-min Rain = 0
KGU1 241637Z 08007KT 08/M10 A3021 RMK A01 T00811096  RH  028%=      5-min Rain = 0
KGU1 241638Z 09007KT 08/M10 A3021 RMK A01 T00831096  RH  027%=      5-min Rain = 0
KGU1 241639Z 09007KT 08/M10 A3021 RMK A01 T00841096  RH  027%=      5-min Rain = 0
KGU1 241640Z 09009KT 09/M09 A3021 RMK A01 T00851094  RH  027%=      5-min Rain = 0
KGU1 241641Z 08010KT 09/M09 A3021 RMK A01 T00851094  RH  027%=      5-min Rain = 0
KGU1 241642Z 07007KT 08/M09 A3021 RMK A01 T00831092  RH  028%=      5-min Rain = 0
KGU1 241643Z 08008KT 08/M09 A3021 RMK A01 T00821091  RH  028%=      5-min Rain = 0
KGU1 241644Z 08008G13KT 08/M09 A3021 RMK A01 T00811089  RH  029%=      5-min Rain = 0
KGU1 241645Z 07008KT 08/M09 A3021 RMK A01 T00831090  RH  028%=      5-min Rain = 0
KGU1 241646Z 08009KT 08/M09 A3021 RMK A01 T00841091  RH  028%=      5-min Rain = 0
KGU1 241647Z 09007KT 08/M09 A3021 RMK A01 T00821091  RH  028%=      5-min Rain = 0
KGU1 241648Z 07009KT 08/M09 A3021 RMK A01 T00801090  RH  029%=      5-min Rain = 0
KGU1 241649Z 08009KT 08/M09 A3021 RMK A01 T00821088  RH  029%=      5-min Rain = 0
KGU1 241650Z 08009KT 08/M09 A3021 RMK A01 T00831088  RH  029%=      5-min Rain = 0
KGU1 241651Z 08011KT 08/M08 A3021 RMK A01 T00841084  RH  029%=      5-min Rain = 0
KGU1 241652Z 09009KT 08/M08 A3021 RMK A01 T00841082  RH  030%=      5-min Rain = 0
KGU1 241653Z 09007KT 08/M08 A3021 RMK A01 T00801080  RH  031%=      5-min Rain = 0
KGU1 241654Z 09006KT 08/M08 A3021 RMK A01 T00791081  RH  031%=      5-min Rain = 0
KGU1 241655Z 07010KT 08/M08 A3021 RMK A01 T00801080  RH  031%=      5-min Rain = 0
KGU1 241656Z 08007KT 08/M08 A3021 RMK A01 T00831079  RH  031%=      5-min Rain = 0
KGU1 241657Z 07006KT 09/M08 A3021 RMK A01 T00871080  RH  030%=      5-min Rain = 0
KGU1 241658Z 08009KT 09/M08 A3021 RMK A01 T00881083  RH  029%=      5-min Rain = 0
KGU1 241659Z 08007KT 09/M08 A3021 RMK A01 T00871083  RH  029%=      5-min Rain = 0
KGU1 241700Z 07007KT 09/M08 A3021 RMK A01 T00871084  RH  029%=      5-min Rain = 0
KGU1 241701Z 08006G11KT 09/M08 A3021 RMK A01 T00891081  RH  029%=      5-min Rain = 0
KGU1 241702Z 08008KT 09/M08 A3021 RMK A01 T00901082  RH  029%=      5-min Rain = 0
KGU1 241703Z 08009KT 09/M08 A3021 RMK A01 T00891081  RH  029%=      5-min Rain = 0
KGU1 241704Z 07008KT 09/M08 A3021 RMK A01 T00911082  RH  029%=      5-min Rain = 0
KGU1 241705Z 08006KT 09/M08 A3021 RMK A01 T00891082  RH  029%=      5-min Rain = 0
KGU1 241706Z 09005KT 09/M08 A3021 RMK A01 T00881082  RH  029%=      5-min Rain = 0
KGU1 241707Z 07007KT 09/M08 A3021 RMK A01 T00891082  RH  029%=      5-min Rain = 0
KGU1 241708Z 06010KT 09/M09 A3021 RMK A01 T00901085  RH  028%=      5-min Rain = 0
KGU1 241709Z 05006G11KT 09/M09 A3021 RMK A01 T00881086  RH  028%=      5-min Rain = 0
KGU1 241710Z 06005KT 09/M09 A3021 RMK A01 T00861085  RH  029%=      5-min Rain = 0
KGU1 241711Z 07009KT 09/M08 A3021 RMK A01 T00871084  RH  029%=      5-min Rain = 0
KGU1 241712Z 04007KT 09/M09 A3021 RMK A01 T00891085  RH  028%=      5-min Rain = 0
KGU1 241713Z 04007KT 09/M09 A3021 RMK A01 T00891085  RH  028%=      5-min Rain = 0
KGU1 241714Z 08008KT 09/M09 A3021 RMK A01 T00891085  RH  028%=      5-min Rain = 0
KGU1 241715Z 07008KT 09/M09 A3021 RMK A01 T00901087  RH  028%=      5-min Rain = 0
KGU1 241716Z 09007KT 09/M09 A3021 RMK A01 T00881088  RH  028%=      5-min Rain = 0
KGU1 241717Z 08007KT 09/M09 A3021 RMK A01 T00881088  RH  028%=      5-min Rain = 0
KGU1 241718Z 08008KT 09/M09 A3021 RMK A01 T00891089  RH  028%=      5-min Rain = 0
KGU1 241719Z 08007KT 09/M09 A3021 RMK A01 T00871090  RH  028%=      5-min Rain = 0
KGU1 241720Z 07009KT 09/M09 A3021 RMK A01 T00891088  RH  028%=      5-min Rain = 0
KGU1 241721Z 05008KT 09/M09 A3021 RMK A01 T00901089  RH  027%=      5-min Rain = 0
KGU1 241722Z 05009KT 09/M09 A3021 RMK A01 T00901089  RH  027%=      5-min Rain = 0
KGU1 241723Z 05005KT 09/M09 A3021 RMK A01 T00871091  RH  027%=      5-min Rain = 0
KGU1 241724Z 06006KT 09/M09 A3021 RMK A01 T00861089  RH  028%=      5-min Rain = 0
KGU1 241725Z 08010KT 09/M09 A3021 RMK A01 T00881089  RH  028%=      5-min Rain = 0
KGU1 241726Z 08009KT 09/M09 A3021 RMK A01 T00891090  RH  027%=      5-min Rain = 0
KGU1 241727Z 09007KT 09/M09 A3021 RMK A01 T00881090  RH  027%=      5-min Rain = 0
KGU1 241728Z 07005KT 09/M09 A3021 RMK A01 T00871090  RH  027%=      5-min Rain = 0
KGU1 241729Z 07009KT 09/M09 A3021 RMK A01 T00891089  RH  027%=      5-min Rain = 0
KGU1 241730Z 07008KT 09/M09 A3021 RMK A01 T00921090  RH  027%=      5-min Rain = 0
KGU1 241731Z 09008KT 09/M09 A3021 RMK A01 T00921090  RH  027%=      5-min Rain = 0
KGU1 241732Z 08007KT 09/M09 A3021 RMK A01 T00921090  RH  027%=      5-min Rain = 0
KGU1 241733Z 08010KT 09/M09 A3021 RMK A01 T00911091  RH  027%=      5-min Rain = 0
KGU1 241734Z 06007KT 09/M09 A3021 RMK A01 T00911090  RH  027%=      5-min Rain = 0
KGU1 241735Z 07007KT 09/M09 A3021 RMK A01 T00941088  RH  027%=      5-min Rain = 0
KGU1 241736Z 08006KT 10/M09 A3021 RMK A01 T00971089  RH  026%=      5-min Rain = 0
KGU1 241737Z 08007KT 10/M09 A3021 RMK A01 T00951090  RH  026%=      5-min Rain = 0
KGU1 241738Z 08008KT 10/M09 A3021 RMK A01 T00961089  RH  026%=      5-min Rain = 0
KGU1 241739Z 08008KT 09/M09 A3021 RMK A01 T00941090  RH  026%=      5-min Rain = 0
KGU1 241740Z 06009KT 09/M09 A3021 RMK A01 T00931090  RH  027%=      5-min Rain = 0
KGU1 241741Z 05008KT 09/M09 A3021 RMK A01 T00931090  RH  026%=      5-min Rain = 0
KGU1 241742Z 05007KT 09/M09 A3021 RMK A01 T00921091  RH  027%=      5-min Rain = 0
KGU1 241743Z 04004KT 09/M09 A3021 RMK A01 T00891092  RH  027%=      5-min Rain = 0
KGU1 241744Z 05006KT 09/M09 A3021 RMK A01 T00891089  RH  027%=      5-min Rain = 0
KGU1 241745Z 08007KT 09/M09 A302 RMK A01 T00941088  RH  027%=      5-min Rain = 0
KGU1 241746Z 08010KT 10/M09 A302 RMK A01 T00961089  RH  026%=      5-min Rain = 0
KGU1 241747Z 07008KT 10/M09 A3021 RMK A01 T00981089  RH  026%=      5-min Rain = 0
KGU1 241748Z 06007KT 10/M09 A3021 RMK A01 T00971090  RH  026%=      5-min Rain = 0
KGU1 241749Z 07010KT 10/M09 A3021 RMK A01 T00961089  RH  026%=      5-min Rain = 0
KGU1 241750Z 08008KT 09/M09 A302 RMK A01 T00941090  RH  026%=      5-min Rain = 0
KGU1 241751Z 06007KT 09/M09 A302 RMK A01 T00941090  RH  026%=      5-min Rain = 0
KGU1 241752Z 05009KT 10/M09 A302 RMK A01 T00971088  RH  026%=      5-min Rain = 0
KGU1 241753Z 07007KT 10/M09 A302 RMK A01 T00981090  RH  026%=      5-min Rain = 0
KGU1 241754Z 09008KT 10/M09 A302 RMK A01 T00961090  RH  026%=      5-min Rain = 0
KGU1 241755Z 06009KT 10/M09 A3021 RMK A01 T00971088  RH  026%=      5-min Rain = 0
KGU1 241756Z 07006KT 10/M09 A302 RMK A01 T00961089  RH  026%=      5-min Rain = 0
KGU1 241757Z 07009G14KT 10/M09 A302 RMK A01 T00951088  RH  027%=      5-min Rain = 0
KGU1 241758Z 07012KT 10/M09 A302 RMK A01 T00981087  RH  026%=      5-min Rain = 0
KGU1 241759Z 07008KT 10/M09 A3021 RMK A01 T00971089  RH  026%=      5-min Rain = 0
KGU1 241800Z 09011KT 10/M09 A302 RMK A01 T00971087  RH  027%=      5-min Rain = 0
KGU1 241801Z 09010KT 10/M09 A302 RMK A01 T00981088  RH  026%=      5-min Rain = 0
KGU1 241802Z 06009KT 10/M09 A3021 RMK A01 T00971088  RH  026%=      5-min Rain = 0
KGU1 241803Z 07008KT 10/M09 A3021 RMK A01 T00971089  RH  026%=      5-min Rain = 0
KGU1 241804Z 07006KT 10/M09 A3021 RMK A01 T00971089  RH  026%=      5-min Rain = 0
KGU1 241805Z 08008KT 10/M09 A302 RMK A01 T00991088  RH  026%=      5-min Rain = 0
KGU1 241806Z 07007KT 10/M09 A302 RMK A01 T01011089  RH  025%=      5-min Rain = 0
KGU1 241807Z 08007G14KT 10/M09 A302 RMK A01 T00981090  RH  026%=      5-min Rain = 0
KGU1 241808Z 06009KT 10/M09 A302 RMK A01 T00971089  RH  026%=      5-min Rain = 0
KGU1 241809Z 08006KT 10/M09 A302 RMK A01 T00981088  RH  026%=      5-min Rain = 0
KGU1 241810Z 07010KT 10/M09 A302 RMK A01 T00991087  RH  026%=      5-min Rain = 0
KGU1 241811Z 06009KT 10/M09 A302 RMK A01 T01001088  RH  026%=      5-min Rain = 0
KGU1 241812Z 06008KT 10/M09 A302 RMK A01 T00991088  RH  026%=      5-min Rain = 0
KGU1 241813Z 06006KT 10/M09 A302 RMK A01 T00961088  RH  026%=      5-min Rain = 0
KGU1 241814Z 08008KT 10/M09 A302 RMK A01 T00961086  RH  027%=      5-min Rain = 0
KGU1 241815Z 09008KT 10/M09 A302 RMK A01 T00981086  RH  026%=      5-min Rain = 0
KGU1 241816Z 07010KT 10/M09 A302 RMK A01 T00981086  RH  027%=      5-min Rain = 0
KGU1 241817Z 08009KT 10/M09 A302 RMK A01 T00991086  RH  026%=      5-min Rain = 0
KGU1 241818Z 07006KT 10/M09 A302 RMK A01 T00991085  RH  026%=      5-min Rain = 0
KGU1 241819Z 05008KT 10/M08 A302 RMK A01 T01031082  RH  026%=      5-min Rain = 0
KGU1 241820Z 06009KT 11/M09 A302 RMK A01 T01071085  RH  025%=      5-min Rain = 0
KGU1 241821Z 06006KT 10/M09 A302 RMK A01 T01021087  RH  026%=      5-min Rain = 0
KGU1 241822Z 07008KT 10/M09 A302 RMK A01 T01001086  RH  026%=      5-min Rain = 0
KGU1 241823Z 10005KT 10/M09 A302 RMK A01 T01001086  RH  026%=      5-min Rain = 0
KGU1 241824Z 09006KT 10/M09 A302 RMK A01 T01001085  RH  026%=      5-min Rain = 0
KGU1 241825Z 08007KT 10/M08 A302 RMK A01 T01021084  RH  026%=      5-min Rain = 0
KGU1 241826Z 09007KT 10/M09 A302 RMK A01 T01041085  RH  026%=      5-min Rain = 0
KGU1 241827Z 08008KT 10/M08 A3019 RMK A01 T01041084  RH  026%=      5-min Rain = 0
KGU1 241828Z 07009KT 10/M08 A3019 RMK A01 T01041084  RH  026%=      5-min Rain = 0
KGU1 241829Z 06010G15KT 10/M08 A3019 RMK A01 T01031084  RH  026%=      5-min Rain = 0
KGU1 241830Z 05009KT 10/M09 A302 RMK A01 T01031085  RH  026%=      5-min Rain = 0
KGU1 241831Z 05005G10KT 10/M09 A302 RMK A01 T01001085  RH  026%=      5-min Rain = 0
KGU1 241832Z 06004KT 10/M09 A3019 RMK A01 T01001085  RH  026%=      5-min Rain = 0
KGU1 241833Z 06004KT 10/M08 A3019 RMK A01 T00991084  RH  027%=      5-min Rain = 0
KGU1 241834Z 09006KT 10/M08 A3019 RMK A01 T01001084  RH  027%=      5-min Rain = 0
KGU1 241835Z 10009KT 10/M08 A3019 RMK A01 T01011083  RH  026%=      5-min Rain = 0
KGU1 241836Z 08009KT 10/M08 A3019 RMK A01 T01031082  RH  026%=      5-min Rain = 0
KGU1 241837Z 09007KT 10/M08 A3019 RMK A01 T01041081  RH  026%=      5-min Rain = 0
KGU1 241838Z 08006KT 10/M08 A3019 RMK A01 T01031081  RH  027%=      5-min Rain = 0
KGU1 241839Z 09006KT 10/M08 A3019 RMK A01 T01021081  RH  027%=      5-min Rain = 0
KGU1 241840Z 08006KT 10/M08 A3019 RMK A01 T01011081  RH  027%=      5-min Rain = 0
KGU1 241841Z 10005G10KT 10/M08 A3019 RMK A01 T01011081  RH  027%=      5-min Rain = 0
KGU1 241842Z 08010KT 10/M08 A3019 RMK A01 T01021079  RH  027%=      5-min Rain = 0
KGU1 241843Z 07009KT 10/M08 A3019 RMK A01 T01021079  RH  027%=      5-min Rain = 0
KGU1 241844Z 10008KT 10/M08 A3019 RMK A01 T01011079  RH  027%=      5-min Rain = 0
KGU1 241845Z 10009KT 10/M08 A3019 RMK A01 T01021078  RH  027%=      5-min Rain = 0
KGU1 241846Z 09007KT 10/M08 A3019 RMK A01 T01031078  RH  027%=      5-min Rain = 0
KGU1 241847Z 08010KT 10/M08 A3018 RMK A01 T01041079  RH  027%=      5-min Rain = 0
KGU1 241848Z 06008KT 11/M08 A3018 RMK A01 T01081079  RH  026%=      5-min Rain = 0
KGU1 241849Z 06006KT 11/M08 A3018 RMK A01 T01101081  RH  026%=      5-min Rain = 0
KGU1 241850Z 07009KT 11/M08 A3018 RMK A01 T01081078  RH  026%=      5-min Rain = 0
KGU1 241851Z 06008KT 11/M08 A3018 RMK A01 T01081078  RH  026%=      5-min Rain = 0
KGU1 241852Z 07006G11KT 11/M08 A3018 RMK A01 T01051078  RH  027%=      5-min Rain = 0
KGU1 241853Z 08008KT 11/M08 A3018 RMK A01 T01051077  RH  027%=      5-min Rain = 0
KGU1 241854Z 06007KT 11/M08 A3018 RMK A01 T01061078  RH  027%=      5-min Rain = 0
KGU1 241855Z 07005G10KT 10/M08 A3018 RMK A01 T01041078  RH  027%=      5-min Rain = 0
KGU1 241856Z 03006G11KT 10/M08 A3018 RMK A01 T01041078  RH  027%=      5-min Rain = 0
KGU1 241857Z 03009KT 10/M08 A3018 RMK A01 T01041080  RH  027%=      5-min Rain = 0
KGU1 241858Z 04004G10KT 10/M08 A3017 RMK A01 T01031080  RH  027%=      5-min Rain = 0
KGU1 241859Z 01004KT 11/M08 A3017 RMK A01 T01051079  RH  027%=      5-min Rain = 0
KGU1 241900Z 02004KT 11/M08 A3017 RMK A01 T01061079  RH  026%=      5-min Rain = 0
KGU1 241901Z 03004KT 11/M08 A3017 RMK A01 T01081079  RH  026%=      5-min Rain = 0
KGU1 241902Z 06005KT 11/M08 A3017 RMK A01 T01081078  RH  026%=      5-min Rain = 0
KGU1 241903Z 08010KT 11/M08 A3017 RMK A01 T01111076  RH  026%=      5-min Rain = 0
KGU1 241904Z 08010KT 11/M08 A3017 RMK A01 T01131077  RH  026%=      5-min Rain = 0
KGU1 241905Z 07007KT 11/M08 A3017 RMK A01 T01101079  RH  026%=      5-min Rain = 0
KGU1 241906Z 06006KT 11/M08 A3017 RMK A01 T01071078  RH  026%=      5-min Rain = 0
KGU1 241907Z 08007KT 11/M08 A3017 RMK A01 T01081076  RH  027%=      5-min Rain = 0
KGU1 241908Z 10009KT 11/M08 A3017 RMK A01 T01141075  RH  026%=      5-min Rain = 0
KGU1 241909Z 08010KT 11/M08 A3017 RMK A01 T01141078  RH  025%=      5-min Rain = 0
KGU1 241910Z 08006KT 11/M08 A3017 RMK A01 T01091080  RH  026%=      5-min Rain = 0
KGU1 241911Z 09008KT 11/M08 A3017 RMK A01 T01061078  RH  027%=      5-min Rain = 0
KGU1 241912Z 09007KT 11/M08 A3017 RMK A01 T01071078  RH  026%=      5-min Rain = 0
KGU1 241913Z 09007KT 11/M08 A3016 RMK A01 T01071078  RH  026%=      5-min Rain = 0
KGU1 241914Z 09005KT 11/M08 A3016 RMK A01 T01081077  RH  026%=      5-min Rain = 0
KGU1 241915Z 09006KT 11/M08 A3016 RMK A01 T01131076  RH  026%=      5-min Rain = 0
KGU1 241916Z 11006KT 12/M08 A3016 RMK A01 T01171076  RH  025%=      5-min Rain = 0
KGU1 241917Z 11006KT 12/M08 A3016 RMK A01 T01181077  RH  025%=      5-min Rain = 0
KGU1 241918Z 09009KT 12/M08 A3016 RMK A01 T01191075  RH  025%=      5-min Rain = 0
KGU1 241919Z 08008KT 12/M08 A3016 RMK A01 T01211077  RH  024%=      5-min Rain = 0
KGU1 241920Z 06008KT 12/M08 A3016 RMK A01 T01191080  RH  024%=      5-min Rain = 0
KGU1 241921Z 06004G9KT 11/M08 A3016 RMK A01 T01121082  RH  025%=      5-min Rain = 0
KGU1 241922Z 10006KT 11/M08 A3016 RMK A01 T01081081  RH  026%=      5-min Rain = 0
KGU1 241923Z 11007KT 11/M08 A3016 RMK A01 T01081080  RH  026%=      5-min Rain = 0
KGU1 241924Z 11007KT 11/M08 A3016 RMK A01 T01101079  RH  026%=      5-min Rain = 0
KGU1 241925Z 08008KT 11/M08 A3016 RMK A01 T01121079  RH  025%=      5-min Rain = 0
KGU1 241926Z 06007KT 12/M08 A3016 RMK A01 T01151079  RH  025%=      5-min Rain = 0
KGU1 241927Z 07005KT 11/M08 A3016 RMK A01 T01131080  RH  025%=      5-min Rain = 0
KGU1 241928Z 05004KT 11/M08 A3016 RMK A01 T01121079  RH  025%=      5-min Rain = 0
KGU1 241929Z 04004KT 11/M08 A3016 RMK A01 T01111080  RH  025%=      5-min Rain = 0
KGU1 241930Z 07009KT 11/M08 A3016 RMK A01 T01131078  RH  025%=      5-min Rain = 0
KGU1 241931Z 09007KT 12/M08 A3016 RMK A01 T01151080  RH  025%=      5-min Rain = 0
KGU1 241932Z 08007KT 11/M08 A3016 RMK A01 T01141081  RH  025%=      5-min Rain = 0
KGU1 241933Z 07006KT 11/M08 A3016 RMK A01 T01121081  RH  025%=      5-min Rain = 0
KGU1 241934Z 04006KT 11/M08 A3016 RMK A01 T01101080  RH  025%=      5-min Rain = 0
KGU1 241935Z 05006KT 11/M08 A3016 RMK A01 T01131079  RH  025%=      5-min Rain = 0
KGU1 241936Z 05007KT 12/M08 A3016 RMK A01 T01171080  RH  025%=      5-min Rain = 0
KGU1 241937Z 08006KT 12/M08 A3016 RMK A01 T01171080  RH  024%=      5-min Rain = 0
KGU1 241938Z 07007KT 12/M08 A3016 RMK A01 T01181079  RH  024%=      5-min Rain = 0
KGU1 241939Z 07005KT 12/M08 A3016 RMK A01 T01191079  RH  024%=      5-min Rain = 0
KGU1 241940Z 06005KT 12/M08 A3016 RMK A01 T01191080  RH  024%=      5-min Rain = 0
KGU1 241941Z 08006KT 12/M08 A3015 RMK A01 T01181080  RH  024%=      5-min Rain = 0
KGU1 241942Z 09007KT 12/M08 A3015 RMK A01 T01191080  RH  024%=      5-min Rain = 0
KGU1 241943Z 08005KT 12/M08 A3015 RMK A01 T01181081  RH  024%=      5-min Rain = 0
KGU1 241944Z 07003KT 12/M08 A3015 RMK A01 T01151082  RH  024%=      5-min Rain = 0
KGU1 241945Z 08003KT 11/M08 A3015 RMK A01 T01141082  RH  025%=      5-min Rain = 0
KGU1 241946Z 07004G9KT 11/M08 A3015 RMK A01 T01141081  RH  025%=      5-min Rain = 0
KGU1 241947Z 06007KT 12/M08 A3015 RMK A01 T01161080  RH  025%=      5-min Rain = 0
KGU1 241948Z 07006KT 12/M08 A3015 RMK A01 T01171080  RH  024%=      5-min Rain = 0
KGU1 241949Z 10005KT 12/M08 A3015 RMK A01 T01201080  RH  024%=      5-min Rain = 0
KGU1 241950Z 07006KT 12/M08 A3015 RMK A01 T01241079  RH  023%=      5-min Rain = 0
KGU1 241951Z 08003KT 12/M08 A3015 RMK A01 T01231083  RH  023%=      5-min Rain = 0
KGU1 241952Z 00001KT 12/M08 A3015 RMK A01 T01211079  RH  024%=      5-min Rain = 0
KGU1 241953Z 22001KT 12/M08 A3015 RMK A01 T01231080  RH  023%=      5-min Rain = 0
KGU1 241954Z 06003G9KT 13/M08 A3014 RMK A01 T01251081  RH  023%=      5-min Rain = 0
KGU1 241955Z 08006KT 13/M08 A3014 RMK A01 T01261081  RH  023%=      5-min Rain = 0
KGU1 241956Z 10005KT 13/M08 A3014 RMK A01 T01251081  RH  023%=      5-min Rain = 0
KGU1 241957Z 10006KT 12/M08 A3014 RMK A01 T01231080  RH  023%=      5-min Rain = 0
KGU1 241958Z 08008KT 13/M08 A3014 RMK A01 T01261078  RH  023%=      5-min Rain = 0
KGU1 241959Z 09007KT 13/M08 A3014 RMK A01 T01251082  RH  023%=      5-min Rain = 0
KGU1 242000Z 09007KT 12/M08 A3014 RMK A01 T01211081  RH  024%=      5-min Rain = 0
KGU1 242001Z 09007KT 12/M08 A3014 RMK A01 T01191082  RH  024%=      5-min Rain = 0
KGU1 242002Z 09005KT 12/M08 A3014 RMK A01 T01181082  RH  024%=      5-min Rain = 0
KGU1 242003Z 06003KT 12/M08 A3014 RMK A01 T01181082  RH  024%=      5-min Rain = 0
KGU1 242004Z 08004KT 12/M08 A3014 RMK A01 T01201082  RH  024%=      5-min Rain = 0
KGU1 242005Z 12001KT 12/M08 A3014 RMK A01 T01211081  RH  024%=      5-min Rain = 0
KGU1 242006Z 09003KT 13/M08 A3013 RMK A01 T01251079  RH  023%=      5-min Rain = 0
KGU1 242007Z 08008KT 13/M08 A3013 RMK A01 T01261082  RH  023%=      5-min Rain = 0
KGU1 242008Z 08007KT 13/M08 A3013 RMK A01 T01251082  RH  023%=      5-min Rain = 0
KGU1 242009Z 10006KT 13/M08 A3013 RMK A01 T01251081  RH  023%=      5-min Rain = 0
KGU1 242010Z 10005KT 12/M08 A3013 RMK A01 T01241083  RH  023%=      5-min Rain = 0
KGU1 242011Z 09004KT 12/M08 A3013 RMK A01 T01211083  RH  023%=      5-min Rain = 0
KGU1 242012Z 09004KT 12/M08 A3013 RMK A01 T01221082  RH  023%=      5-min Rain = 0
KGU1 242013Z 09005KT 12/M08 A3013 RMK A01 T01231083  RH  023%=      5-min Rain = 0
KGU1 242014Z 09004G9KT 12/M08 A3013 RMK A01 T01241082  RH  023%=      5-min Rain = 0
KGU1 242015Z 12003KT 12/M08 A3013 RMK A01 T01231082  RH  023%=      5-min Rain = 0
KGU1 242016Z 09005G10KT 13/M08 A3013 RMK A01 T01251081  RH  023%=      5-min Rain = 0
KGU1 242017Z 09007KT 13/M08 A3013 RMK A01 T01261080  RH  023%=      5-min Rain = 0
KGU1 242018Z 11009KT 12/M08 A3013 RMK A01 T01241080  RH  023%=      5-min Rain = 0
KGU1 242019Z 10009KT 12/M08 A3013 RMK A01 T01231080  RH  023%=      5-min Rain = 0
KGU1 242020Z 09007KT 12/M08 A3013 RMK A01 T01231079  RH  024%=      5-min Rain = 0
KGU1 242021Z 11008KT 12/M08 A3013 RMK A01 T01231079  RH  024%=      5-min Rain = 0
KGU1 242022Z 11007KT 13/M08 A3013 RMK A01 T01251079  RH  023%=      5-min Rain = 0
KGU1 242023Z 12006KT 13/M08 A3013 RMK A01 T01251080  RH  023%=      5-min Rain = 0
KGU1 242024Z 08006KT 13/M08 A3013 RMK A01 T01251080  RH  023%=      5-min Rain = 0
KGU1 242025Z 07005KT 13/M08 A3013 RMK A01 T01261082  RH  023%=      5-min Rain = 0
KGU1 242026Z 07006KT 13/M08 A3013 RMK A01 T01281080  RH  023%=      5-min Rain = 0
KGU1 242027Z 06006KT 13/M08 A3013 RMK A01 T01271082  RH  022%=      5-min Rain = 0
KGU1 242028Z 07003KT 13/M08 A3012 RMK A01 T01261081  RH  023%=      5-min Rain = 0
KGU1 242029Z 05004KT 13/M08 A3012 RMK A01 T01251080  RH  023%=      5-min Rain = 0
KGU1 242030Z 05006KT 13/M08 A3012 RMK A01 T01261080  RH  023%=      5-min Rain = 0
KGU1 242031Z 12007KT 13/M08 A3012 RMK A01 T01291079  RH  023%=      5-min Rain = 0
KGU1 242032Z 12004KT 13/M08 A3012 RMK A01 T01291082  RH  022%=      5-min Rain = 0
KGU1 242033Z 11003KT 13/M08 A3012 RMK A01 T01271081  RH  023%=      5-min Rain = 0
KGU1 242034Z 10004KT 13/M08 A3012 RMK A01 T01291079  RH  023%=      5-min Rain = 0
KGU1 242035Z 11005KT 13/M08 A3012 RMK A01 T01301080  RH  022%=      5-min Rain = 0
KGU1 242036Z 13000KT 13/M08 A3012 RMK A01 T01291081  RH  022%=      5-min Rain = 0
KGU1 242037Z 08004KT 13/M08 A3012 RMK A01 T01291079  RH  023%=      5-min Rain = 0
KGU1 242038Z 10005KT 13/M08 A3012 RMK A01 T01291080  RH  022%=      5-min Rain = 0
KGU1 242039Z 13007KT 13/M08 A3012 RMK A01 T01281080  RH  023%=      5-min Rain = 0
KGU1 242040Z 13006KT 13/M08 A3012 RMK A01 T01281080  RH  023%=      5-min Rain = 0
KGU1 242041Z 10006KT 13/M08 A3012 RMK A01 T01291081  RH  022%=      5-min Rain = 0
KGU1 242042Z 09004KT 13/M08 A3012 RMK A01 T01291080  RH  023%=      5-min Rain = 0
KGU1 242043Z 11004KT 13/M08 A3012 RMK A01 T01301079  RH  023%=      5-min Rain = 0
KGU1 242044Z 14003KT 13/M08 A3012 RMK A01 T01321081  RH  022%=      5-min Rain = 0
KGU1 242045Z 09003KT 13/M08 A3012 RMK A01 T01331080  RH  022%=      5-min Rain = 0
KGU1 242046Z 08004KT 14/M08 A3012 RMK A01 T01351081  RH  021%=      5-min Rain = 0
KGU1 242047Z 09005KT 14/M08 A3012 RMK A01 T01351081  RH  021%=      5-min Rain = 0
KGU1 242048Z 13006KT 14/M08 A3012 RMK A01 T01351081  RH  022%=      5-min Rain = 0
KGU1 242049Z 12006KT 14/M08 A3012 RMK A01 T01351082  RH  021%=      5-min Rain = 0
KGU1 242050Z 11005KT 13/M08 A3012 RMK A01 T01331084  RH  021%=      5-min Rain = 0
KGU1 242051Z 12003KT 13/M08 A3012 RMK A01 T01291084  RH  022%=      5-min Rain = 0
KGU1 242052Z 10004KT 13/M08 A3012 RMK A01 T01291083  RH  022%=      5-min Rain = 0
KGU1 242053Z 11001KT 13/M08 A3012 RMK A01 T01281084  RH  022%=      5-min Rain = 0
KGU1 242054Z 12002KT 13/M08 A3012 RMK A01 T01301083  RH  022%=      5-min Rain = 0
KGU1 242055Z 04002KT 13/M08 A3011 RMK A01 T01321083  RH  022%=      5-min Rain = 0
KGU1 242056Z 08005KT 14/M08 A3011 RMK A01 T01351083  RH  021%=      5-min Rain = 0
KGU1 242057Z 07005KT 14/M08 A3011 RMK A01 T01361084  RH  021%=      5-min Rain = 0
KGU1 242058Z 05003KT 14/M09 A3011 RMK A01 T01361086  RH  021%=      5-min Rain = 0
KGU1 242059Z 13003G8KT 14/M08 A3011 RMK A01 T01351083  RH  021%=      5-min Rain = 0
KGU1 242100Z 13005KT 14/M08 A3011 RMK A01 T01371081  RH  021%=      5-min Rain = 0
KGU1 242101Z 11004KT 14/M08 A3011 RMK A01 T01381081  RH  021%=      5-min Rain = 0
KGU1 242102Z 12003KT 14/M08 A3011 RMK A01 T01381082  RH  021%=      5-min Rain = 0
KGU1 242103Z 13006KT 14/M08 A3011 RMK A01 T01391082  RH  021%=      5-min Rain = 0
KGU1 242104Z 10008KT 14/M08 A3011 RMK A01 T01411083  RH  020%=      5-min Rain = 0
KGU1 242105Z 10008KT 14/M08 A3011 RMK A01 T01401081  RH  021%=      5-min Rain = 0
KGU1 242106Z 09007KT 14/M08 A3011 RMK A01 T01361082  RH  021%=      5-min Rain = 0
KGU1 242107Z 08005KT 13/M08 A3011 RMK A01 T01321082  RH  022%=      5-min Rain = 0
KGU1 242108Z 11007KT 13/M08 A3011 RMK A01 T01321079  RH  022%=      5-min Rain = 0
KGU1 242109Z 12007KT 14/M08 A3011 RMK A01 T01351080  RH  022%=      5-min Rain = 0
KGU1 242110Z 12005KT 14/M08 A3011 RMK A01 T01361082  RH  021%=      5-min Rain = 0
KGU1 242111Z 09007KT 14/M08 A3011 RMK A01 T01351082  RH  021%=      5-min Rain = 0
KGU1 242112Z 08006KT 14/M08 A3011 RMK A01 T01351080  RH  022%=      5-min Rain = 0
KGU1 242113Z 09005KT 13/M08 A301 RMK A01 T01341082  RH  022%=      5-min Rain = 0
KGU1 242114Z 07004KT 13/M08 A3011 RMK A01 T01331081  RH  022%=      5-min Rain = 0
KGU1 242115Z 09003KT 13/M08 A301 RMK A01 T01321083  RH  022%=      5-min Rain = 0
KGU1 242116Z 09003KT 13/M08 A301 RMK A01 T01321084  RH  021%=      5-min Rain = 0
KGU1 242117Z 11006KT 13/M08 A3011 RMK A01 T01341084  RH  021%=      5-min Rain = 0
KGU1 242118Z 11006KT 14/M08 A3011 RMK A01 T01361084  RH  021%=      5-min Rain = 0
KGU1 242119Z 11005KT 14/M09 A301 RMK A01 T01371085  RH  021%=      5-min Rain = 0
KGU1 242120Z 09004KT 14/M08 A301 RMK A01 T01381084  RH  021%=      5-min Rain = 0
KGU1 242121Z 12004KT 14/M08 A301 RMK A01 T01411083  RH  020%=      5-min Rain = 0
KGU1 242122Z 08005KT 15/M08 A301 RMK A01 T01451084  RH  020%=      5-min Rain = 0
KGU1 242123Z 07004KT 15/M08 A301 RMK A01 T01451084  RH  020%=      5-min Rain = 0
KGU1 242124Z 11003KT 14/M09 A301 RMK A01 T01421087  RH  020%=      5-min Rain = 0
KGU1 242125Z 09006KT 14/M08 A301 RMK A01 T01401084  RH  020%=      5-min Rain = 0
KGU1 242126Z 11007KT 14/M09 A301 RMK A01 T01401086  RH  020%=      5-min Rain = 0
KGU1 242127Z 10007KT 14/M09 A301 RMK A01 T01401086  RH  020%=      5-min Rain = 0
KGU1 242128Z 10006KT 14/M09 A301 RMK A01 T01401087  RH  020%=      5-min Rain = 0
KGU1 242129Z 09004KT 14/M09 A301 RMK A01 T01401089  RH  020%=      5-min Rain = 0
KGU1 242130Z 11006KT 14/M09 A301 RMK A01 T01381086  RH  020%=      5-min Rain = 0
KGU1 242131Z 09005KT 14/M09 A301 RMK A01 T01421086  RH  020%=      5-min Rain = 0
KGU1 242132Z 12005KT 14/M09 A301 RMK A01 T01431087  RH  020%=      5-min Rain = 0
KGU1 242133Z 13006KT 14/M09 A301 RMK A01 T01431088  RH  019%=      5-min Rain = 0
KGU1 242134Z 11008KT 14/M09 A301 RMK A01 T01411086  RH  020%=      5-min Rain = 0
KGU1 242135Z 11006KT 14/M09 A301 RMK A01 T01401085  RH  020%=      5-min Rain = 0
KGU1 242136Z 10006KT 14/M09 A301 RMK A01 T01391085  RH  020%=      5-min Rain = 0
KGU1 242137Z 10008KT 14/M09 A301 RMK A01 T01391086  RH  020%=      5-min Rain = 0
KGU1 242138Z 12008KT 14/M09 A301 RMK A01 T01391085  RH  020%=      5-min Rain = 0
KGU1 242139Z 11006KT 14/M09 A301 RMK A01 T01391087  RH  020%=      5-min Rain = 0
KGU1 242140Z 11005KT 14/M09 A301 RMK A01 T01371088  RH  020%=      5-min Rain = 0
KGU1 242141Z 13006KT 14/M09 A301 RMK A01 T01361086  RH  020%=      5-min Rain = 0
KGU1 242142Z 13005KT 14/M09 A301 RMK A01 T01361087  RH  020%=      5-min Rain = 0
KGU1 242143Z 14005KT 14/M09 A301 RMK A01 T01361087  RH  020%=      5-min Rain = 0
KGU1 242144Z 10007KT 14/M09 A301 RMK A01 T01381086  RH  020%=      5-min Rain = 0
KGU1 242145Z 08006KT 14/M09 A301 RMK A01 T01391088  RH  020%=      5-min Rain = 0
KGU1 242146Z 07006KT 14/M09 A301 RMK A01 T01391088  RH  020%=      5-min Rain = 0
KGU1 242147Z 06002KT 14/M09 A301 RMK A01 T01381090  RH  020%=      5-min Rain = 0
KGU1 242148Z 13003KT 14/M09 A301 RMK A01 T01391086  RH  020%=      5-min Rain = 0
KGU1 242149Z 10005KT 14/M09 A301 RMK A01 T01411088  RH  020%=      5-min Rain = 0
KGU1 242150Z 10004KT 14/M09 A301 RMK A01 T01421086  RH  020%=      5-min Rain = 0
KGU1 242151Z 10004G10KT 14/M09 A301 RMK A01 T01421087  RH  020%=      5-min Rain = 0
KGU1 242152Z 10005KT 14/M09 A301 RMK A01 T01411086  RH  020%=      5-min Rain = 0
KGU1 242153Z 09004KT 14/M09 A301 RMK A01 T01421088  RH  020%=      5-min Rain = 0
KGU1 242154Z 12003KT 14/M09 A301 RMK A01 T01411088  RH  020%=      5-min Rain = 0
KGU1 242155Z 06005KT 14/M09 A301 RMK A01 T01411088  RH  020%=      5-min Rain = 0
KGU1 242156Z 06005KT 14/M09 A301 RMK A01 T01401089  RH  020%=      5-min Rain = 0
KGU1 242157Z 08004KT 14/M09 A301 RMK A01 T01381089  RH  020%=      5-min Rain = 0
KGU1 242158Z 09004KT 14/M09 A301 RMK A01 T01371090  RH  020%=      5-min Rain = 0
KGU1 242159Z 09004KT 14/M09 A301 RMK A01 T01381088  RH  020%=      5-min Rain = 0
KGU1 242200Z 10005KT 14/M09 A301 RMK A01 T01421087  RH  020%=      5-min Rain = 0
KGU1 242201Z 09006KT 14/M09 A3011 RMK A01 T01441086  RH  020%=      5-min Rain = 0
KGU1 242202Z 09007KT 15/M09 A301 RMK A01 T01461085  RH  019%=      5-min Rain = 0
KGU1 242203Z 10005KT 15/M09 A301 RMK A01 T01461087  RH  019%=      5-min Rain = 0
KGU1 242204Z 08004KT 14/M09 A301 RMK A01 T01431088  RH  019%=      5-min Rain = 0
KGU1 242205Z 08003KT 14/M09 A301 RMK A01 T01411088  RH  020%=      5-min Rain = 0
KGU1 242206Z 11005KT 14/M09 A301 RMK A01 T01411087  RH  020%=      5-min Rain = 0
KGU1 242207Z 13006KT 14/M09 A301 RMK A01 T01441086  RH  019%=      5-min Rain = 0
KGU1 242208Z 10006KT 15/M09 A301 RMK A01 T01451088  RH  019%=      5-min Rain = 0
KGU1 242209Z 09005KT 14/M09 A301 RMK A01 T01411088  RH  020%=      5-min Rain = 0
KGU1 242210Z 08003KT 14/M09 A301 RMK A01 T01401088  RH  020%=      5-min Rain = 0
KGU1 242211Z 09001KT 14/M09 A301 RMK A01 T01401087  RH  020%=      5-min Rain = 0
KGU1 242212Z 10005KT 14/M09 A301 RMK A01 T01411087  RH  020%=      5-min Rain = 0
KGU1 242213Z 10004KT 14/M09 A301 RMK A01 T01421088  RH  019%=      5-min Rain = 0
KGU1 242214Z 11006KT 14/M09 A301 RMK A01 T01431086  RH  020%=      5-min Rain = 0
KGU1 242215Z 12003KT 14/M09 A301 RMK A01 T01431086  RH  020%=      5-min Rain = 0
KGU1 242216Z 11004KT 14/M09 A301 RMK A01 T01431086  RH  020%=      5-min Rain = 0
KGU1 242217Z 13007KT 14/M09 A301 RMK A01 T01441085  RH  020%=      5-min Rain = 0
KGU1 242218Z 14006KT 14/M09 A301 RMK A01 T01441087  RH  019%=      5-min Rain = 0
KGU1 242219Z 14006KT 14/M09 A301 RMK A01 T01431086  RH  020%=      5-min Rain = 0
KGU1 242220Z 13006KT 14/M09 A301 RMK A01 T01431087  RH  020%=      5-min Rain = 0
KGU1 242221Z 10005KT 14/M09 A301 RMK A01 T01441089  RH  019%=      5-min Rain = 0
KGU1 242222Z 09005KT 14/M09 A301 RMK A01 T01431088  RH  019%=      5-min Rain = 0
KGU1 242223Z 09006KT 14/M09 A301 RMK A01 T01421087  RH  020%=      5-min Rain = 0
KGU1 242224Z 10005KT 14/M09 A301 RMK A01 T01431087  RH  020%=      5-min Rain = 0
KGU1 242225Z 11004KT 14/M09 A301 RMK A01 T01431087  RH  019%=      5-min Rain = 0
KGU1 242226Z 09005KT 15/M09 A301 RMK A01 T01451086  RH  019%=      5-min Rain = 0
KGU1 242227Z 08004KT 15/M09 A301 RMK A01 T01451086  RH  019%=      5-min Rain = 0
KGU1 242228Z 08006KT 15/M09 A301 RMK A01 T01451086  RH  019%=      5-min Rain = 0
KGU1 242229Z 11004KT 15/M09 A301 RMK A01 T01451086  RH  019%=      5-min Rain = 0
KGU1 242230Z 10005KT 14/M09 A301 RMK A01 T01441086  RH  019%=      5-min Rain = 0
KGU1 242231Z 05004KT 14/M09 A301 RMK A01 T01441087  RH  019%=      5-min Rain = 0
KGU1 242232Z 03003KT 14/M09 A301 RMK A01 T01441087  RH  019%=      5-min Rain = 0
KGU1 242233Z 06004KT 14/M09 A301 RMK A01 T01441086  RH  019%=      5-min Rain = 0
KGU1 242234Z 11004KT 14/M09 A301 RMK A01 T01441087  RH  019%=      5-min Rain = 0
KGU1 242235Z 11004KT 14/M09 A301 RMK A01 T01441088  RH  019%=      5-min Rain = 0
KGU1 242236Z 11003KT 14/M09 A301 RMK A01 T01441089  RH  019%=      5-min Rain = 0
KGU1 242237Z 11005KT 14/M09 A301 RMK A01 T01431088  RH  019%=      5-min Rain = 0
KGU1 242238Z 11005KT 14/M09 A301 RMK A01 T01431087  RH  019%=      5-min Rain = 0
KGU1 242239Z 09004KT 14/M09 A301 RMK A01 T01441088  RH  019%=      5-min Rain = 0
KGU1 242240Z 09003KT 14/M09 A301 RMK A01 T01431088  RH  019%=      5-min Rain = 0
KGU1 242241Z 10004KT 14/M09 A301 RMK A01 T01421088  RH  019%=      5-min Rain = 0
KGU1 242242Z 08005KT 15/M09 A301 RMK A01 T01451086  RH  020%=      5-min Rain = 0
KGU1 242243Z 10004KT 15/M09 A301 RMK A01 T01471088  RH  019%=      5-min Rain = 0
KGU1 242244Z 13005KT 15/M09 A301 RMK A01 T01461089  RH  019%=      5-min Rain = 0
KGU1 242245Z 14005KT 15/M09 A301 RMK A01 T01451091  RH  019%=      5-min Rain = 0
KGU1 242246Z 15004KT 14/M09 A301 RMK A01 T01441091  RH  019%=      5-min Rain = 0
KGU1 242247Z 15004KT 15/M09 A301 RMK A01 T01461091  RH  019%=      5-min Rain = 0
KGU1 242248Z 10004KT 15/M09 A301 RMK A01 T01461091  RH  018%=      5-min Rain = 0
KGU1 242249Z 09004KT 15/M09 A301 RMK A01 T01461092  RH  018%=      5-min Rain = 0
KGU1 242250Z 09005G10KT 15/M09 A3009 RMK A01 T01451092  RH  019%=      5-min Rain = 0
KGU1 242251Z 10007KT 15/M09 A3009 RMK A01 T01451090  RH  019%=      5-min Rain = 0
KGU1 242252Z 09006KT 15/M09 A3009 RMK A01 T01451089  RH  019%=      5-min Rain = 0
KGU1 242253Z 10004KT 15/M09 A3009 RMK A01 T01451089  RH  019%=      5-min Rain = 0
KGU1 242254Z 14003KT 15/M09 A3009 RMK A01 T01451091  RH  019%=      5-min Rain = 0
KGU1 242255Z 14004KT 15/M09 A3009 RMK A01 T01451092  RH  018%=      5-min Rain = 0
KGU1 242256Z 13003KT 15/M09 A3009 RMK A01 T01461093  RH  018%=      5-min Rain = 0
KGU1 242257Z 10005KT 15/M09 A3009 RMK A01 T01461093  RH  018%=      5-min Rain = 0
KGU1 242258Z 09003KT 15/M09 A3009 RMK A01 T01451093  RH  018%=      5-min Rain = 0
KGU1 242259Z 11004KT 14/M09 A3009 RMK A01 T01441094  RH  018%=      5-min Rain = 0
KGU1 242300Z 12004KT 15/M09 A3009 RMK A01 T01451093  RH  018%=      5-min Rain = 0
KGU1 242301Z 13004KT 15/M09 A3009 RMK A01 T01481092  RH  018%=      5-min Rain = 0
KGU1 242302Z 12003KT 15/M09 A3009 RMK A01 T01491091  RH  018%=      5-min Rain = 0
KGU1 242303Z 10004KT 15/M09 A3009 RMK A01 T01511090  RH  018%=      5-min Rain = 0
KGU1 242304Z 09005KT 15/M09 A3009 RMK A01 T01511092  RH  018%=      5-min Rain = 0
KGU1 242305Z 07006KT 15/M09 A3009 RMK A01 T01491092  RH  018%=      5-min Rain = 0
KGU1 242306Z 09005KT 15/M09 A3009 RMK A01 T01471093  RH  018%=      5-min Rain = 0
KGU1 242307Z 10003KT 15/M09 A3009 RMK A01 T01461094  RH  018%=      5-min Rain = 0
KGU1 242308Z 09004KT 15/M10 A3009 RMK A01 T01461095  RH  018%=      5-min Rain = 0
KGU1 242309Z 10004KT 15/M10 A3009 RMK A01 T01471095  RH  018%=      5-min Rain = 0
KGU1 242310Z 07003KT 15/M10 A3009 RMK A01 T01471095  RH  018%=      5-min Rain = 0
KGU1 242311Z 07003KT 15/M10 A3009 RMK A01 T01491095  RH  018%=      5-min Rain = 0
KGU1 242312Z 07004KT 15/M10 A3009 RMK A01 T01501095  RH  018%=      5-min Rain = 0
KGU1 242313Z 07004KT 15/M10 A3009 RMK A01 T01501096  RH  017%=      5-min Rain = 0
KGU1 242314Z 08005KT 15/M10 A3009 RMK A01 T01491096  RH  018%=      5-min Rain = 0
KGU1 242315Z 10005KT 15/M09 A3009 RMK A01 T01491093  RH  018%=      5-min Rain = 0
KGU1 242316Z 10004KT 15/M09 A3009 RMK A01 T01481090  RH  018%=      5-min Rain = 0
KGU1 242317Z 08006KT 15/M09 A3009 RMK A01 T01471089  RH  019%=      5-min Rain = 0
KGU1 242318Z 09006KT 15/M09 A3009 RMK A01 T01471089  RH  019%=      5-min Rain = 0
KGU1 242319Z 10007KT 15/M09 A3009 RMK A01 T01461088  RH  019%=      5-min Rain = 0
KGU1 242320Z 10008KT 15/M09 A3009 RMK A01 T01471087  RH  019%=      5-min Rain = 0
KGU1 242321Z 11007KT 15/M09 A3009 RMK A01 T01471087  RH  019%=      5-min Rain = 0
KGU1 242322Z 11006KT 15/M09 A3009 RMK A01 T01461086  RH  019%=      5-min Rain = 0
KGU1 242323Z 09005KT 15/M09 A3009 RMK A01 T01451087  RH  019%=      5-min Rain = 0
KGU1 242324Z 09007KT 14/M09 A3009 RMK A01 T01441087  RH  019%=      5-min Rain = 0
KGU1 242325Z 10006KT 14/M09 A3009 RMK A01 T01431087  RH  019%=      5-min Rain = 0
KGU1 242326Z 10004KT 14/M09 A3009 RMK A01 T01421088  RH  020%=      5-min Rain = 0
KGU1 242327Z 12004KT 14/M09 A3009 RMK A01 T01411087  RH  020%=      5-min Rain = 0
KGU1 242328Z 11003KT 14/M09 A3009 RMK A01 T01421087  RH  020%=      5-min Rain = 0
KGU1 242329Z 12004KT 14/M09 A3009 RMK A01 T01431088  RH  019%=      5-min Rain = 0
KGU1 242330Z 12003KT 14/M09 A3009 RMK A01 T01431088  RH  019%=      5-min Rain = 0
KGU1 242331Z 06005KT 14/M09 A3009 RMK A01 T01421087  RH  020%=      5-min Rain = 0
KGU1 242332Z 07005KT 14/M09 A3009 RMK A01 T01431086  RH  020%=      5-min Rain = 0
KGU1 242333Z 08005KT 14/M09 A3009 RMK A01 T01441086  RH  020%=      5-min Rain = 0
KGU1 242334Z 08004KT 14/M09 A3009 RMK A01 T01431086  RH  020%=      5-min Rain = 0
KGU1 242335Z 09003KT 14/M09 A3009 RMK A01 T01421087  RH  020%=      5-min Rain = 0
KGU1 242336Z 10002KT 14/M09 A3009 RMK A01 T01401087  RH  020%=      5-min Rain = 0
KGU1 242337Z 11003KT 14/M09 A3009 RMK A01 T01391087  RH  020%=      5-min Rain = 0
KGU1 242338Z 12002KT 14/M09 A3009 RMK A01 T01391087  RH  020%=      5-min Rain = 0
KGU1 242339Z 13002KT 14/M09 A3009 RMK A01 T01391087  RH  020%=      5-min Rain = 0
KGU1 242340Z 12003KT 14/M09 A3009 RMK A01 T01381087  RH  020%=      5-min Rain = 0
KGU1 242341Z 09002KT 14/M09 A3009 RMK A01 T01381088  RH  020%=      5-min Rain = 0
KGU1 242342Z 08002KT 14/M09 A3009 RMK A01 T01371089  RH  020%=      5-min Rain = 0
KGU1 242343Z 08003KT 14/M09 A3009 RMK A01 T01371088  RH  020%=      5-min Rain = 0
KGU1 242344Z 08003KT 14/M09 A3009 RMK A01 T01361088  RH  020%=      5-min Rain = 0
KGU1 242345Z 07004KT 14/M09 A3009 RMK A01 T01361087  RH  020%=      5-min Rain = 0
KGU1 242346Z 08003KT 14/M09 A3009 RMK A01 T01361088  RH  020%=      5-min Rain = 0
KGU1 242347Z 08003KT 14/M09 A3009 RMK A01 T01371088  RH  020%=      5-min Rain = 0
KGU1 242348Z 08003KT 14/M09 A3009 RMK A01 T01371089  RH  020%=      5-min Rain = 0
KGU1 242349Z 09001KT 14/M09 A3009 RMK A01 T01371090  RH  020%=      5-min Rain = 0
KGU1 242350Z 10001KT 14/M09 A3009 RMK A01 T01361089  RH  020%=      5-min Rain = 0
KGU1 242351Z 11001KT 14/M09 A3009 RMK A01 T01361089  RH  020%=      5-min Rain = 0
KGU1 242352Z 08002KT 14/M09 A3009 RMK A01 T01361089  RH  020%=      5-min Rain = 0
KGU1 242353Z 08002KT 14/M09 A3009 RMK A01 T01371088  RH  020%=      5-min Rain = 0
KGU1 242354Z 05002KT 14/M09 A3009 RMK A01 T01381089  RH  020%=      5-min Rain = 0
KGU1 242355Z 06003KT 14/M09 A3009 RMK A01 T01381088  RH  020%=      5-min Rain = 0
KGU1 242356Z 05003KT 14/M09 A3009 RMK A01 T01381088  RH  020%=      5-min Rain = 0
KGU1 242357Z 07004KT 14/M09 A3009 RMK A01 T01371087  RH  020%=      5-min Rain = 0
KGU1 242358Z 08005KT 14/M09 A3009 RMK A01 T01371086  RH  020%=      5-min Rain = 0
KGU1 242359Z 08004KT 14/M09 A3009 RMK A01 T01361086  RH  021%=      5-min Rain = 0
KGU1 250000Z 06002KT 14/M09 A3009 RMK A01 T01361086  RH  021%=      5-min Rain = 0
KGU1 250001Z 05002KT 14/M09 A3009 RMK A01 T01361085  RH  021%=      5-min Rain = 0
KGU1 250002Z 08004KT 14/M09 A3009 RMK A01 T01361085  RH  021%=      5-min Rain = 0
KGU1 250003Z 08004KT 14/M09 A3009 RMK A01 T01371086  RH  021%=      5-min Rain = 0
KGU1 250004Z 10003KT 14/M09 A3009 RMK A01 T01371086  RH  020%=      5-min Rain = 0
KGU1 250005Z 10003KT 14/M09 A3009 RMK A01 T01381085  RH  020%=      5-min Rain = 0
KGU1 250006Z 08004KT 14/M09 A3009 RMK A01 T01381085  RH  020%=      5-min Rain = 0
KGU1 250007Z 08002KT 14/M08 A3009 RMK A01 T01381084  RH  021%=      5-min Rain = 0
KGU1 250008Z 06002KT 14/M08 A3009 RMK A01 T01381084  RH  021%=      5-min Rain = 0
KGU1 250009Z 06004KT 14/M08 A3009 RMK A01 T01381084  RH  021%=      5-min Rain = 0
KGU1 250010Z 07003KT 14/M08 A3009 RMK A01 T01371084  RH  021%=      5-min Rain = 0
KGU1 250011Z 08003KT 14/M08 A3009 RMK A01 T01361084  RH  021%=      5-min Rain = 0
KGU1 250012Z 08004KT 14/M08 A3008 RMK A01 T01351084  RH  021%=      5-min Rain = 0
KGU1 250013Z 06003KT 13/M08 A3008 RMK A01 T01341084  RH  021%=      5-min Rain = 0
KGU1 250014Z 06003KT 13/M08 A3008 RMK A01 T01331084  RH  021%=      5-min Rain = 0
KGU1 250015Z 08003KT 13/M08 A3008 RMK A01 T01321084  RH  021%=      5-min Rain = 0
KGU1 250016Z 08003KT 13/M08 A3008 RMK A01 T01311083  RH  022%=      5-min Rain = 0
KGU1 250017Z 08004KT 13/M08 A3008 RMK A01 T01311082  RH  022%=      5-min Rain = 0
KGU1 250018Z 08004KT 13/M08 A3008 RMK A01 T01301082  RH  022%=      5-min Rain = 0
KGU1 250019Z 06004KT 13/M08 A3009 RMK A01 T01291083  RH  022%=      5-min Rain = 0
KGU1 250020Z 08003KT 13/M08 A3008 RMK A01 T01291083  RH  022%=      5-min Rain = 0
KGU1 250021Z 08003KT 13/M08 A3008 RMK A01 T01281082  RH  022%=      5-min Rain = 0
KGU1 250022Z 09003KT 13/M08 A3008 RMK A01 T01281081  RH  022%=      5-min Rain = 0
KGU1 250023Z 09003KT 13/M08 A3009 RMK A01 T01271081  RH  023%=      5-min Rain = 0
KGU1 250024Z 10003KT 13/M08 A3009 RMK A01 T01271081  RH  023%=      5-min Rain = 0
KGU1 250025Z 11004KT 13/M08 A3008 RMK A01 T01261081  RH  023%=      5-min Rain = 0
KGU1 250026Z 10004KT 13/M08 A3008 RMK A01 T01261081  RH  023%=      5-min Rain = 0
KGU1 250027Z 09005KT 13/M08 A3008 RMK A01 T01251081  RH  023%=      5-min Rain = 0
KGU1 250028Z 09004KT 13/M08 A3009 RMK A01 T01251081  RH  023%=      5-min Rain = 0
KGU1 250029Z 08002KT 13/M08 A3009 RMK A01 T01251081  RH  023%=      5-min Rain = 0
KGU1 250030Z 08003KT 12/M08 A3009 RMK A01 T01241080  RH  023%=      5-min Rain = 0
KGU1 250031Z 08002KT 12/M08 A3009 RMK A01 T01241081  RH  023%=      5-min Rain = 0
KGU1 250032Z 08002KT 12/M08 A3009 RMK A01 T01241081  RH  023%=      5-min Rain = 0
KGU1 250033Z 09002KT 12/M08 A3009 RMK A01 T01241081  RH  023%=      5-min Rain = 0
KGU1 250034Z 10003KT 12/M08 A3009 RMK A01 T01241081  RH  023%=      5-min Rain = 0
KGU1 250035Z 10004KT 12/M08 A3009 RMK A01 T01241081  RH  023%=      5-min Rain = 0
KGU1 250036Z 10004KT 12/M08 A3009 RMK A01 T01241081  RH  023%=      5-min Rain = 0
KGU1 250037Z 09004KT 12/M08 A3009 RMK A01 T01231081  RH  023%=      5-min Rain = 0
KGU1 250038Z 10004KT 12/M08 A3009 RMK A01 T01231081  RH  023%=      5-min Rain = 0
KGU1 250039Z 09003KT 12/M08 A3009 RMK A01 T01221081  RH  023%=      5-min Rain = 0
KGU1 250040Z 09003KT 12/M08 A3009 RMK A01 T01211081  RH  023%=      5-min Rain = 0
KGU1 250041Z 09003KT 12/M08 A3009 RMK A01 T01211081  RH  024%=      5-min Rain = 0
KGU1 250042Z 09003KT 12/M08 A3009 RMK A01 T01211081  RH  024%=      5-min Rain = 0
KGU1 250043Z 09003KT 12/M08 A3009 RMK A01 T01211081  RH  024%=      5-min Rain = 0
KGU1 250044Z 10003KT 12/M08 A3009 RMK A01 T01211081  RH  024%=      5-min Rain = 0
KGU1 250045Z 09003KT 12/M08 A3009 RMK A01 T01201081  RH  024%=      5-min Rain = 0
KGU1 250046Z 09003KT 12/M08 A3009 RMK A01 T01201082  RH  024%=      5-min Rain = 0
KGU1 250047Z 09003KT 12/M08 A3009 RMK A01 T01201082  RH  024%=      5-min Rain = 0
KGU1 250048Z 09003KT 12/M08 A3009 RMK A01 T01191082  RH  024%=      5-min Rain = 0
KGU1 250049Z 08002KT 12/M08 A301 RMK A01 T01191081  RH  024%=      5-min Rain = 0
KGU1 250050Z 02001KT 12/M08 A301 RMK A01 T01181081  RH  024%=      5-min Rain = 0
KGU1 250051Z 36002KT 12/M08 A301 RMK A01 T01171081  RH  024%=      5-min Rain = 0
KGU1 250052Z 03001KT 12/M08 A301 RMK A01 T01161081  RH  024%=      5-min Rain = 0
KGU1 250053Z 05001KT 12/M08 A301 RMK A01 T01161081  RH  024%=      5-min Rain = 0
KGU1 250054Z 02001KT 12/M08 A301 RMK A01 T01151081  RH  025%=      5-min Rain = 0
KGU1 250055Z 04001KT 12/M08 A301 RMK A01 T01151081  RH  025%=      5-min Rain = 0
KGU1 250056Z 36001KT 11/M08 A301 RMK A01 T01141081  RH  025%=      5-min Rain = 0
KGU1 250057Z 01001KT 11/M08 A301 RMK A01 T01141081  RH  025%=      5-min Rain = 0
KGU1 250058Z 03001KT 11/M08 A301 RMK A01 T01141081  RH  025%=      5-min Rain = 0
KGU1 250059Z 04001KT 12/M08 A301 RMK A01 T01151081  RH  025%=      5-min Rain = 0
KGU1 250100Z 03002KT 12/M08 A301 RMK A01 T01151081  RH  025%=      5-min Rain = 0
KGU1 250101Z 03001KT 12/M08 A301 RMK A01 T01151081  RH  025%=      5-min Rain = 0
KGU1 250102Z 01001KT 11/M08 A301 RMK A01 T01141081  RH  025%=      5-min Rain = 0
KGU1 250103Z 03000KT 11/M08 A301 RMK A01 T01141081  RH  025%=      5-min Rain = 0
KGU1 250104Z 03001KT 11/M08 A301 RMK A01 T01131081  RH  025%=      5-min Rain = 0
KGU1 250105Z 03002KT 11/M08 A301 RMK A01 T01131081  RH  025%=      5-min Rain = 0
KGU1 250106Z 02002KT 11/M08 A301 RMK A01 T01121082  RH  025%=      5-min Rain = 0
KGU1 250107Z 01002KT 11/M08 A301 RMK A01 T01131081  RH  025%=      5-min Rain = 0
KGU1 250108Z 01001KT 11/M08 A301 RMK A01 T01131081  RH  025%=      5-min Rain = 0
KGU1 250109Z 04001KT 11/M08 A3011 RMK A01 T01141081  RH  025%=      5-min Rain = 0
KGU1 250110Z 00000KT 11/M08 A3011 RMK A01 T01141081  RH  025%=      5-min Rain = 0
KGU1 250111Z 33001KT 11/M08 A3011 RMK A01 T01141081  RH  025%=      5-min Rain = 0
KGU1 250112Z 35001KT 12/M08 A301 RMK A01 T01151081  RH  025%=      5-min Rain = 0
KGU1 250113Z 35001KT 12/M08 A301 RMK A01 T01151081  RH  025%=      5-min Rain = 0
KGU1 250114Z 02001KT 12/M08 A301 RMK A01 T01151081  RH  024%=      5-min Rain = 0
KGU1 250115Z 02001KT 12/M08 A3011 RMK A01 T01151081  RH  025%=      5-min Rain = 0
KGU1 250116Z 06000KT 11/M08 A3011 RMK A01 T01141080  RH  025%=      5-min Rain = 0
KGU1 250117Z 06000KT 11/M08 A3011 RMK A01 T01141080  RH  025%=      5-min Rain = 0
KGU1 250118Z 05000KT 12/M08 A3011 RMK A01 T01151080  RH  025%=      5-min Rain = 0
KGU1 250119Z 00000KT 11/M08 A3011 RMK A01 T01131080  RH  025%=      5-min Rain = 0
KGU1 250120Z 15000KT 11/M08 A3011 RMK A01 T01111080  RH  025%=      5-min Rain = 0
KGU1 250121Z 14001KT 11/M08 A3011 RMK A01 T01111080  RH  025%=      5-min Rain = 0
KGU1 250122Z 22000KT 11/M08 A3011 RMK A01 T01111079  RH  026%=      5-min Rain = 0
KGU1 250123Z 26001KT 11/M08 A3011 RMK A01 T01101078  RH  026%=      5-min Rain = 0
KGU1 250124Z 28000KT 11/M08 A3011 RMK A01 T01091078  RH  026%=      5-min Rain = 0
KGU1 250125Z 18000KT 11/M08 A3011 RMK A01 T01071078  RH  026%=      5-min Rain = 0
KGU1 250126Z 22001KT 11/M08 A3011 RMK A01 T01061079  RH  026%=      5-min Rain = 0
KGU1 250127Z 25001KT 11/M08 A3011 RMK A01 T01071079  RH  026%=      5-min Rain = 0
KGU1 250128Z 28003KT 11/M08 A3011 RMK A01 T01081078  RH  026%=      5-min Rain = 0
KGU1 250129Z 28002KT 11/M08 A3011 RMK A01 T01081079  RH  026%=      5-min Rain = 0
KGU1 250130Z 26000KT 11/M08 A3011 RMK A01 T01051079  RH  026%=      5-min Rain = 0
KGU1 250131Z 23000KT 10/M08 A3011 RMK A01 T01041079  RH  027%=      5-min Rain = 0
KGU1 250132Z 26001KT 10/M08 A3011 RMK A01 T01031079  RH  027%=      5-min Rain = 0
KGU1 250133Z 28002KT 10/M08 A3011 RMK A01 T01041079  RH  027%=      5-min Rain = 0
KGU1 250134Z 28002KT 10/M08 A3011 RMK A01 T01041079  RH  027%=      5-min Rain = 0
KGU1 250135Z 27002KT 10/M08 A3011 RMK A01 T01031079  RH  027%=      5-min Rain = 0
KGU1 250136Z 28002KT 10/M08 A3011 RMK A01 T01031079  RH  027%=      5-min Rain = 0
KGU1 250137Z 27002KT 10/M08 A3011 RMK A01 T01021079  RH  027%=      5-min Rain = 0
KGU1 250138Z 26002KT 10/M08 A3011 RMK A01 T01021079  RH  027%=      5-min Rain = 0
KGU1 250139Z 26002KT 10/M08 A3011 RMK A01 T01011079  RH  027%=      5-min Rain = 0
KGU1 250140Z 25001KT 10/M08 A3011 RMK A01 T01011079  RH  027%=      5-min Rain = 0
KGU1 250141Z 25001KT 10/M08 A3011 RMK A01 T01001080  RH  027%=      5-min Rain = 0
KGU1 250142Z 27002KT 10/M08 A3011 RMK A01 T00991080  RH  027%=      5-min Rain = 0
KGU1 250143Z 29003KT 10/M08 A3011 RMK A01 T00981081  RH  028%=      5-min Rain = 0
KGU1 250144Z 29004KT 10/M08 A3011 RMK A01 T00951081  RH  028%=      5-min Rain = 0
KGU1 250145Z 29003KT 09/M08 A3011 RMK A01 T00931081  RH  028%=      5-min Rain = 0
KGU1 250146Z 29003KT 09/M08 A3011 RMK A01 T00921080  RH  029%=      5-min Rain = 0
KGU1 250147Z 29003KT 09/M08 A3011 RMK A01 T00911080  RH  029%=      5-min Rain = 0
KGU1 250148Z 30003KT 09/M08 A3011 RMK A01 T00911079  RH  029%=      5-min Rain = 0
KGU1 250149Z 30004KT 09/M08 A3011 RMK A01 T00901080  RH  029%=      5-min Rain = 0
KGU1 250150Z 30005KT 09/M08 A3011 RMK A01 T00891080  RH  029%=      5-min Rain = 0
KGU1 250151Z 30005KT 09/M08 A3011 RMK A01 T00881080  RH  030%=      5-min Rain = 0
KGU1 250152Z 30005KT 09/M08 A3011 RMK A01 T00871080  RH  030%=      5-min Rain = 0
KGU1 250153Z 30004KT 09/M08 A3011 RMK A01 T00861079  RH  030%=      5-min Rain = 0
KGU1 250154Z 30004KT 09/M08 A3011 RMK A01 T00861079  RH  030%=      5-min Rain = 0
KGU1 250155Z 29005KT 09/M08 A3011 RMK A01 T00861079  RH  030%=      5-min Rain = 0
KGU1 250156Z 29007KT 09/M08 A3011 RMK A01 T00851080  RH  030%=      5-min Rain = 0
KGU1 250157Z 30007KT 09/M08 A3011 RMK A01 T00851080  RH  030%=      5-min Rain = 0
KGU1 250158Z 31006KT 08/M08 A3011 RMK A01 T00841080  RH  030%=      5-min Rain = 0
KGU1 250159Z 31004KT 08/M08 A3011 RMK A01 T00841080  RH  030%=      5-min Rain = 0
KGU1 250200Z 31003KT 09/M08 A3011 RMK A01 T00851080  RH  030%=      5-min Rain = 0
KGU1 250201Z 30003KT 09/M08 A3011 RMK A01 T00861080  RH  030%=      5-min Rain = 0
KGU1 250202Z 29004KT 09/M08 A3011 RMK A01 T00861081  RH  030%=      5-min Rain = 0
KGU1 250203Z 29005KT 09/M08 A3012 RMK A01 T00861081  RH  030%=      5-min Rain = 0
KGU1 250204Z 28006KT 09/M08 A3012 RMK A01 T00861081  RH  030%=      5-min Rain = 0
KGU1 250205Z 28006KT 09/M08 A3011 RMK A01 T00851082  RH  030%=      5-min Rain = 0
KGU1 250206Z 29006KT 08/M08 A3011 RMK A01 T00831082  RH  030%=      5-min Rain = 0
KGU1 250207Z 29005KT 08/M08 A3011 RMK A01 T00811082  RH  031%=      5-min Rain = 0
KGU1 250208Z 29005KT 08/M08 A3011 RMK A01 T00811082  RH  031%=      5-min Rain = 0
KGU1 250209Z 30005KT 08/M08 A3012 RMK A01 T00801081  RH  031%=      5-min Rain = 0
KGU1 250210Z 30006KT 08/M08 A3011 RMK A01 T00801081  RH  031%=      5-min Rain = 0
KGU1 250211Z 29006KT 08/M08 A3012 RMK A01 T00801081  RH  031%=      5-min Rain = 0
KGU1 250212Z 30007KT 08/M08 A3012 RMK A01 T00801081  RH  031%=      5-min Rain = 0
KGU1 250213Z 31006KT 08/M08 A3012 RMK A01 T00801081  RH  031%=      5-min Rain = 0
KGU1 250214Z 30007KT 08/M08 A3012 RMK A01 T00811081  RH  031%=      5-min Rain = 0
KGU1 250215Z 30007KT 08/M08 A3012 RMK A01 T00831081  RH  031%=      5-min Rain = 0
KGU1 250216Z 30006KT 08/M08 A3012 RMK A01 T00841081  RH  030%=      5-min Rain = 0
KGU1 250217Z 30007KT 08/M08 A3012 RMK A01 T00841081  RH  030%=      5-min Rain = 0
KGU1 250218Z 29007KT 08/M08 A3012 RMK A01 T00831081  RH  030%=      5-min Rain = 0
KGU1 250219Z 29007KT 08/M08 A3012 RMK A01 T00831082  RH  030%=      5-min Rain = 0
KGU1 250220Z 29007KT 08/M08 A3012 RMK A01 T00831082  RH  030%=      5-min Rain = 0
KGU1 250221Z 29006KT 08/M08 A3012 RMK A01 T00841082  RH  030%=      5-min Rain = 0
KGU1 250222Z 30006KT 09/M08 A3012 RMK A01 T00861081  RH  030%=      5-min Rain = 0
KGU1 250223Z 29006KT 09/M08 A3012 RMK A01 T00861082  RH  030%=      5-min Rain = 0
KGU1 250224Z 28006KT 09/M08 A3012 RMK A01 T00861082  RH  030%=      5-min Rain = 0
KGU1 250225Z 28007KT 09/M08 A3012 RMK A01 T00871082  RH  030%=      5-min Rain = 0
KGU1 250226Z 29007KT 09/M08 A3012 RMK A01 T00871082  RH  029%=      5-min Rain = 0
KGU1 250227Z 29006KT 09/M08 A3012 RMK A01 T00881082  RH  029%=      5-min Rain = 0
KGU1 250228Z 29006KT 09/M08 A3012 RMK A01 T00881082  RH  029%=      5-min Rain = 0
KGU1 250229Z 29006KT 09/M08 A3012 RMK A01 T00881082  RH  029%=      5-min Rain = 0
KGU1 250230Z 28006KT 09/M08 A3012 RMK A01 T00881081  RH  029%=      5-min Rain = 0
KGU1 250231Z 28007KT 09/M08 A3012 RMK A01 T00881081  RH  029%=      5-min Rain = 0
KGU1 250232Z 28008KT 09/M08 A3012 RMK A01 T00871082  RH  029%=      5-min Rain = 0
KGU1 250233Z 29008KT 09/M08 A3012 RMK A01 T00871082  RH  029%=      5-min Rain = 0
KGU1 250234Z 29008KT 09/M08 A3012 RMK A01 T00881082  RH  029%=      5-min Rain = 0
KGU1 250235Z 28006KT 09/M08 A3012 RMK A01 T00901082  RH  029%=      5-min Rain = 0
KGU1 250236Z 28007KT 09/M08 A3012 RMK A01 T00921082  RH  028%=      5-min Rain = 0
KGU1 250237Z 28008KT 09/M08 A3012 RMK A01 T00921083  RH  028%=      5-min Rain = 0
KGU1 250238Z 28009KT 09/M08 A3012 RMK A01 T00931084  RH  028%=      5-min Rain = 0
KGU1 250239Z 29009KT 10/M09 A3012 RMK A01 T00951086  RH  027%=      5-min Rain = 0
KGU1 250240Z 29010KT 10/M09 A3012 RMK A01 T00961088  RH  026%=      5-min Rain = 0
KGU1 250241Z 29010KT 10/M09 A3012 RMK A01 T00961089  RH  026%=      5-min Rain = 0
KGU1 250242Z 29010KT 10/M09 A3012 RMK A01 T00981089  RH  026%=      5-min Rain = 0
KGU1 250243Z 29010KT 10/M09 A3012 RMK A01 T00991090  RH  025%=      5-min Rain = 0
KGU1 250244Z 29009KT 10/M09 A3012 RMK A01 T01021090  RH  025%=      5-min Rain = 0
KGU1 250245Z 29007KT 10/M09 A3012 RMK A01 T01041092  RH  024%=      5-min Rain = 0
KGU1 250246Z 29008KT 11/M09 A3012 RMK A01 T01061092  RH  024%=      5-min Rain = 0
KGU1 250247Z 29009KT 11/M09 A3012 RMK A01 T01061093  RH  024%=      5-min Rain = 0
KGU1 250248Z 29009KT 11/M09 A3012 RMK A01 T01051093  RH  024%=      5-min Rain = 0
KGU1 250249Z 29010KT 11/M10 A3012 RMK A01 T01051095  RH  023%=      5-min Rain = 0
KGU1 250250Z 29011KT 11/M10 A3012 RMK A01 T01051098  RH  023%=      5-min Rain = 0
KGU1 250251Z 29011KT 11/M10 A3012 RMK A01 T01051099  RH  023%=      5-min Rain = 0
KGU1 250252Z 29011KT 11/M10 A3012 RMK A01 T01061099  RH  023%=      5-min Rain = 0
KGU1 250253Z 30010KT 11/M10 A3012 RMK A01 T01061099  RH  023%=      5-min Rain = 0
KGU1 250254Z 29009KT 11/M10 A3012 RMK A01 T01061100  RH  022%=      5-min Rain = 0
KGU1 250255Z 29009KT 11/M10 A3012 RMK A01 T01061100  RH  022%=      5-min Rain = 0
KGU1 250256Z 29010KT 11/M10 A3012 RMK A01 T01061100  RH  022%=      5-min Rain = 0
KGU1 250257Z 29010KT 11/M10 A3012 RMK A01 T01061102  RH  022%=      5-min Rain = 0
KGU1 250258Z 29009KT 11/M10 A3012 RMK A01 T01071103  RH  022%=      5-min Rain = 0
KGU1 250259Z 29011KT 11/M10 A3012 RMK A01 T01071103  RH  022%=      5-min Rain = 0
KGU1 250300Z 29011KT 11/M10 A3012 RMK A01 T01081104  RH  022%=      5-min Rain = 0
KGU1 250301Z 29009KT 11/M10 A3012 RMK A01 T01091104  RH  021%=      5-min Rain = 0
KGU1 250302Z 29009KT 11/M11 A3012 RMK A01 T01091105  RH  021%=      5-min Rain = 0
KGU1 250303Z 29008KT 11/M11 A3012 RMK A01 T01081107  RH  021%=      5-min Rain = 0
KGU1 250304Z 29008KT 11/M11 A3012 RMK A01 T01071108  RH  021%=      5-min Rain = 0
KGU1 250305Z 28007KT 11/M11 A3012 RMK A01 T01061110  RH  021%=      5-min Rain = 0
KGU1 250306Z 28007KT 11/M11 A3012 RMK A01 T01051111  RH  021%=      5-min Rain = 0
KGU1 250307Z 28006KT 11/M11 A3012 RMK A01 T01051111  RH  021%=      5-min Rain = 0
KGU1 250308Z 29006KT 10/M11 A3013 RMK A01 T01041112  RH  021%=      5-min Rain = 0
KGU1 250309Z 22003KT 10/M11 A3013 RMK A01 T01031112  RH  021%=      5-min Rain = 0
KGU1 250310Z 17002KT 10/M11 A3013 RMK A01 T01011109  RH  022%=      5-min Rain = 0
KGU1 250311Z 20003KT 10/M11 A3013 RMK A01 T00991108  RH  022%=      5-min Rain = 0
KGU1 250312Z 21001KT 10/M11 A3013 RMK A01 T00981111  RH  022%=      5-min Rain = 0
KGU1 250313Z 25002KT 10/M11 A3013 RMK A01 T00981113  RH  021%=      5-min Rain = 0
KGU1 250314Z 29002KT 10/M11 A3013 RMK A01 T00991114  RH  021%=      5-min Rain = 0
KGU1 250315Z 28002KT 10/M12 A3013 RMK A01 T01021116  RH  020%=      5-min Rain = 0
KGU1 250316Z 28004KT 11/M12 A3013 RMK A01 T01051116  RH  020%=      5-min Rain = 0
KGU1 250317Z 29004KT 11/M12 A3013 RMK A01 T01051116  RH  020%=      5-min Rain = 0
KGU1 250318Z 29005KT 10/M12 A3013 RMK A01 T01041118  RH  020%=      5-min Rain = 0
KGU1 250319Z 28004KT 11/M12 A3013 RMK A01 T01061120  RH  019%=      5-min Rain = 0
KGU1 250320Z 02004KT 11/M12 A3013 RMK A01 T01081116  RH  020%=      5-min Rain = 0
KGU1 250321Z 02003KT 10/M11 A3014 RMK A01 T01031110  RH  021%=      5-min Rain = 0
KGU1 250322Z 04001KT 10/M11 A3014 RMK A01 T00991110  RH  022%=      5-min Rain = 0
KGU1 250323Z 34001KT 10/M11 A3014 RMK A01 T00961108  RH  022%=      5-min Rain = 0
KGU1 250324Z 33000KT 10/M10 A3014 RMK A01 T00951104  RH  023%=      5-min Rain = 0
KGU1 250325Z 03001KT 09/M10 A3014 RMK A01 T00941102  RH  024%=      5-min Rain = 0
KGU1 250326Z 04003KT 09/M10 A3014 RMK A01 T00931103  RH  024%=      5-min Rain = 0
KGU1 250327Z 04003KT 09/M10 A3014 RMK A01 T00931102  RH  024%=      5-min Rain = 0
KGU1 250328Z 03003KT 09/M10 A3014 RMK A01 T00921100  RH  025%=      5-min Rain = 0
KGU1 250329Z 03004KT 09/M10 A3014 RMK A01 T00921097  RH  025%=      5-min Rain = 0
KGU1 250330Z 02004KT 09/M10 A3014 RMK A01 T00921095  RH  026%=      5-min Rain = 0
KGU1 250331Z 02004KT 09/M09 A3014 RMK A01 T00921094  RH  026%=      5-min Rain = 0
KGU1 250332Z 03003KT 09/M09 A3014 RMK A01 T00921092  RH  026%=      5-min Rain = 0
KGU1 250333Z 03003KT 09/M09 A3014 RMK A01 T00921090  RH  027%=      5-min Rain = 0
KGU1 250334Z 04003KT 09/M09 A3014 RMK A01 T00921090  RH  027%=      5-min Rain = 0
KGU1 250335Z 03002KT 09/M09 A3014 RMK A01 T00911090  RH  027%=      5-min Rain = 0
KGU1 250336Z 03002KT 09/M09 A3014 RMK A01 T00911089  RH  027%=      5-min Rain = 0
KGU1 250337Z 03002KT 09/M09 A3014 RMK A01 T00911088  RH  027%=      5-min Rain = 0
KGU1 250338Z 01002KT 09/M09 A3014 RMK A01 T00911087  RH  027%=      5-min Rain = 0
KGU1 250339Z 02001KT 09/M09 A3014 RMK A01 T00921086  RH  027%=      5-min Rain = 0
KGU1 250340Z 34001KT 09/M09 A3014 RMK A01 T00921086  RH  027%=      5-min Rain = 0
KGU1 250341Z 32002KT 09/M09 A3014 RMK A01 T00921087  RH  027%=      5-min Rain = 0
KGU1 250342Z 32003KT 09/M09 A3014 RMK A01 T00901088  RH  027%=      5-min Rain = 0
KGU1 250343Z 32003KT 09/M09 A3014 RMK A01 T00881088  RH  028%=      5-min Rain = 0
KGU1 250344Z 34002KT 09/M09 A3014 RMK A01 T00861087  RH  028%=      5-min Rain = 0
KGU1 250345Z 36002KT 09/M09 A3014 RMK A01 T00851086  RH  029%=      5-min Rain = 0
KGU1 250346Z 01003KT 09/M09 A3014 RMK A01 T00851086  RH  029%=      5-min Rain = 0
KGU1 250347Z 01003KT 09/M09 A3014 RMK A01 T00851086  RH  029%=      5-min Rain = 0
KGU1 250348Z 36003KT 08/M09 A3014 RMK A01 T00841086  RH  029%=      5-min Rain = 0
KGU1 250349Z 01003KT 08/M09 A3014 RMK A01 T00831086  RH  029%=      5-min Rain = 0
KGU1 250350Z 01003KT 08/M09 A3014 RMK A01 T00811086  RH  029%=      5-min Rain = 0
KGU1 250351Z 36003KT 08/M09 A3014 RMK A01 T00791087  RH  030%=      5-min Rain = 0
KGU1 250352Z 34003KT 08/M09 A3015 RMK A01 T00771087  RH  030%=      5-min Rain = 0
KGU1 250353Z 34003KT 08/M09 A3014 RMK A01 T00761086  RH  031%=      5-min Rain = 0
KGU1 250354Z 34004KT 08/M09 A3014 RMK A01 T00771085  RH  031%=      5-min Rain = 0
KGU1 250355Z 34004KT 08/M08 A3014 RMK A01 T00801084  RH  030%=      5-min Rain = 0
KGU1 250356Z 34003KT 08/M09 A3014 RMK A01 T00811085  RH  030%=      5-min Rain = 0
KGU1 250357Z 35003KT 08/M09 A3015 RMK A01 T00791086  RH  030%=      5-min Rain = 0
KGU1 250358Z 35003KT 08/M09 A3015 RMK A01 T00771086  RH  030%=      5-min Rain = 0
KGU1 250359Z 00002KT 08/M09 A3015 RMK A01 T00761086  RH  031%=      5-min Rain = 0
KGU1 250400Z 02002KT 08/M09 A3015 RMK A01 T00761085  RH  031%=      5-min Rain = 0
KGU1 250401Z 03002KT 08/M08 A3015 RMK A01 T00761084  RH  031%=      5-min Rain = 0
KGU1 250402Z 03002KT 08/M08 A3015 RMK A01 T00791083  RH  031%=      5-min Rain = 0
KGU1 250403Z 01001KT 08/M08 A3015 RMK A01 T00811083  RH  030%=      5-min Rain = 0
KGU1 250404Z 00002KT 08/M08 A3015 RMK A01 T00821084  RH  030%=      5-min Rain = 0
KGU1 250405Z 35002KT 08/M08 A3015 RMK A01 T00821084  RH  030%=      5-min Rain = 0
KGU1 250406Z 36002KT 08/M08 A3015 RMK A01 T00831084  RH  030%=      5-min Rain = 0
KGU1 250407Z 34002KT 08/M08 A3015 RMK A01 T00841084  RH  029%=      5-min Rain = 0
KGU1 250408Z 34002KT 08/M09 A3015 RMK A01 T00821087  RH  029%=      5-min Rain = 0
KGU1 250409Z 34002KT 08/M09 A3015 RMK A01 T00781090  RH  029%=      5-min Rain = 0
KGU1 250410Z 35001KT 08/M09 A3015 RMK A01 T00761089  RH  030%=      5-min Rain = 0
KGU1 250411Z 01002KT 08/M09 A3015 RMK A01 T00761089  RH  030%=      5-min Rain = 0
KGU1 250412Z 02002KT 08/M09 A3015 RMK A01 T00771086  RH  030%=      5-min Rain = 0
KGU1 250413Z 02002KT 08/M09 A3015 RMK A01 T00801086  RH  030%=      5-min Rain = 0
KGU1 250414Z 03002KT 08/M09 A3015 RMK A01 T00821087  RH  029%=      5-min Rain = 0
KGU1 250415Z 03002KT 08/M09 A3015 RMK A01 T00821087  RH  029%=      5-min Rain = 0
KGU1 250416Z 03002KT 08/M09 A3015 RMK A01 T00821086  RH  029%=      5-min Rain = 0
KGU1 250417Z 03002KT 08/M09 A3016 RMK A01 T00811086  RH  030%=      5-min Rain = 0
KGU1 250418Z 02002KT 08/M09 A3016 RMK A01 T00811086  RH  030%=      5-min Rain = 0
KGU1 250419Z 02002KT 08/M09 A3016 RMK A01 T00801085  RH  030%=      5-min Rain = 0
KGU1 250420Z 03002KT 08/M09 A3016 RMK A01 T00801085  RH  030%=      5-min Rain = 0
KGU1 250421Z 04002KT 08/M08 A3016 RMK A01 T00811084  RH  030%=      5-min Rain = 0
KGU1 250422Z 02002KT 08/M08 A3016 RMK A01 T00831083  RH  030%=      5-min Rain = 0
KGU1 250423Z 35003KT 08/M08 A3016 RMK A01 T00841083  RH  030%=      5-min Rain = 0
KGU1 250424Z 34003KT 08/M08 A3016 RMK A01 T00831084  RH  030%=      5-min Rain = 0
KGU1 250425Z 00003KT 08/M09 A3016 RMK A01 T00801086  RH  030%=      5-min Rain = 0
KGU1 250426Z 02003KT 08/M09 A3016 RMK A01 T00781085  RH  031%=      5-min Rain = 0
KGU1 250427Z 04003KT 08/M08 A3016 RMK A01 T00771084  RH  031%=      5-min Rain = 0
KGU1 250428Z 03003KT 08/M08 A3016 RMK A01 T00771083  RH  031%=      5-min Rain = 0
KGU1 250429Z 01004KT 08/M08 A3016 RMK A01 T00791082  RH  031%=      5-min Rain = 0
KGU1 250430Z 00004KT 08/M08 A3016 RMK A01 T00791082  RH  031%=      5-min Rain = 0
KGU1 250431Z 35005KT 08/M08 A3016 RMK A01 T00781083  RH  031%=      5-min Rain = 0
KGU1 250432Z 35006KT 08/M08 A3016 RMK A01 T00751083  RH  032%=      5-min Rain = 0
KGU1 250433Z 35005KT 08/M08 A3016 RMK A01 T00751082  RH  032%=      5-min Rain = 0
KGU1 250434Z 35005KT 07/M08 A3016 RMK A01 T00741082  RH  032%=      5-min Rain = 0
KGU1 250435Z 36005KT 07/M08 A3016 RMK A01 T00731083  RH  032%=      5-min Rain = 0
KGU1 250436Z 00004KT 07/M08 A3016 RMK A01 T00721083  RH  032%=      5-min Rain = 0
KGU1 250437Z 01004KT 07/M08 A3016 RMK A01 T00711082  RH  033%=      5-min Rain = 0
KGU1 250438Z 01004KT 07/M08 A3016 RMK A01 T00721081  RH  033%=      5-min Rain = 0
KGU1 250439Z 00004KT 07/M08 A3016 RMK A01 T00741080  RH  033%=      5-min Rain = 0
KGU1 250440Z 35004KT 08/M08 A3016 RMK A01 T00761080  RH  032%=      5-min Rain = 0
KGU1 250441Z 35005KT 08/M08 A3016 RMK A01 T00761081  RH  032%=      5-min Rain = 0
KGU1 250442Z 34005KT 07/M08 A3016 RMK A01 T00741082  RH  032%=      5-min Rain = 0
KGU1 250443Z 33005KT 07/M08 A3016 RMK A01 T00721082  RH  033%=      5-min Rain = 0
KGU1 250444Z 33006KT 07/M08 A3016 RMK A01 T00701082  RH  033%=      5-min Rain = 0
KGU1 250445Z 34005KT 07/M08 A3016 RMK A01 T00681082  RH  033%=      5-min Rain = 0
KGU1 250446Z 34005KT 07/M08 A3016 RMK A01 T00681081  RH  034%=      5-min Rain = 0
KGU1 250447Z 33005KT 07/M08 A3016 RMK A01 T00681081  RH  034%=      5-min Rain = 0
KGU1 250448Z 33006KT 07/M08 A3016 RMK A01 T00681081  RH  034%=      5-min Rain = 0
KGU1 250449Z 33006KT 07/M08 A3016 RMK A01 T00681081  RH  034%=      5-min Rain = 0
KGU1 250450Z 34005KT 07/M08 A3016 RMK A01 T00691080  RH  034%=      5-min Rain = 0
KGU1 250451Z 34005KT 07/M08 A3016 RMK A01 T00691080  RH  034%=      5-min Rain = 0
KGU1 250452Z 34005KT 07/M08 A3016 RMK A01 T00701080  RH  033%=      5-min Rain = 0
KGU1 250453Z 34005KT 07/M08 A3016 RMK A01 T00721079  RH  033%=      5-min Rain = 0
KGU1 250454Z 33005KT 07/M08 A3016 RMK A01 T00731079  RH  033%=      5-min Rain = 0
KGU1 250455Z 32005KT 07/M08 A3016 RMK A01 T00721080  RH  033%=      5-min Rain = 0
KGU1 250456Z 32005KT 07/M08 A3016 RMK A01 T00711080  RH  033%=      5-min Rain = 0
KGU1 250457Z 33006KT 07/M08 A3016 RMK A01 T00701081  RH  033%=      5-min Rain = 0
KGU1 250458Z 34005KT 07/M08 A3016 RMK A01 T00701080  RH  034%=      5-min Rain = 0
KGU1 250459Z 34004KT 07/M08 A3016 RMK A01 T00711080  RH  033%=      5-min Rain = 0
KGU1 250500Z 34003KT 07/M08 A3016 RMK A01 T00701081  RH  033%=      5-min Rain = 0
KGU1 250501Z 34003KT 07/M08 A3016 RMK A01 T00701081  RH  033%=      5-min Rain = 0
KGU1 250502Z 33003KT 07/M08 A3016 RMK A01 T00691081  RH  033%=      5-min Rain = 0
KGU1 250503Z 35003KT 07/M08 A3016 RMK A01 T00671082  RH  034%=      5-min Rain = 0
KGU1 250504Z 36004KT 07/M08 A3016 RMK A01 T00661081  RH  034%=      5-min Rain = 0
KGU1 250505Z 01004KT 07/M08 A3016 RMK A01 T00691079  RH  034%=      5-min Rain = 0
KGU1 250506Z 01004KT 07/M08 A3016 RMK A01 T00711079  RH  033%=      5-min Rain = 0
KGU1 250507Z 02004KT 07/M08 A3016 RMK A01 T00731079  RH  033%=      5-min Rain = 0
KGU1 250508Z 02003KT 08/M08 A3016 RMK A01 T00751079  RH  033%=      5-min Rain = 0
KGU1 250509Z 01002KT 08/M08 A3016 RMK A01 T00771079  RH  032%=      5-min Rain = 0
KGU1 250510Z 01003KT 08/M08 A3016 RMK A01 T00771079  RH  032%=      5-min Rain = 0
KGU1 250511Z 00004KT 08/M08 A3016 RMK A01 T00771079  RH  032%=      5-min Rain = 0
KGU1 250512Z 01004KT 08/M08 A3016 RMK A01 T00771079  RH  032%=      5-min Rain = 0
KGU1 250513Z 01003KT 08/M08 A3016 RMK A01 T00771080  RH  032%=      5-min Rain = 0
KGU1 250514Z 01002KT 08/M08 A3016 RMK A01 T00771080  RH  032%=      5-min Rain = 0
KGU1 250515Z 00002KT 08/M08 A3016 RMK A01 T00761080  RH  032%=      5-min Rain = 0
KGU1 250516Z 33002KT 08/M08 A3016 RMK A01 T00761080  RH  032%=      5-min Rain = 0
KGU1 250517Z 33002KT 07/M08 A3016 RMK A01 T00741082  RH  032%=      5-min Rain = 0
KGU1 250518Z 34002KT 07/M09 A3016 RMK A01 T00711085  RH  032%=      5-min Rain = 0
KGU1 250519Z 01002KT 07/M09 A3016 RMK A01 T00681085  RH  032%=      5-min Rain = 0
KGU1 250520Z 01002KT 07/M08 A3016 RMK A01 T00681083  RH  033%=      5-min Rain = 0
KGU1 250521Z 34001KT 07/M08 A3016 RMK A01 T00691084  RH  033%=      5-min Rain = 0
KGU1 250522Z 34001KT 07/M08 A3016 RMK A01 T00681084  RH  033%=      5-min Rain = 0
KGU1 250523Z 04000KT 07/M08 A3016 RMK A01 T00681083  RH  033%=      5-min Rain = 0
KGU1 250524Z 02001KT 07/M08 A3016 RMK A01 T00681083  RH  033%=      5-min Rain = 0
KGU1 250525Z 01001KT 07/M08 A3016 RMK A01 T00701080  RH  034%=      5-min Rain = 0
KGU1 250526Z 35001KT 07/M08 A3016 RMK A01 T00741079  RH  033%=      5-min Rain = 0
KGU1 250527Z 32001KT 07/M08 A3016 RMK A01 T00741082  RH  032%=      5-min Rain = 0
KGU1 250528Z 31002KT 07/M09 A3016 RMK A01 T00711086  RH  032%=      5-min Rain = 0
KGU1 250529Z 35001KT 07/M09 A3016 RMK A01 T00671087  RH  032%=      5-min Rain = 0
KGU1 250530Z 04002KT 07/M08 A3016 RMK A01 T00671083  RH  033%=      5-min Rain = 0
KGU1 250531Z 06002KT 07/M08 A3016 RMK A01 T00691080  RH  034%=      5-min Rain = 0
KGU1 250532Z 05002KT 07/M08 A3016 RMK A01 T00721078  RH  034%=      5-min Rain = 0
KGU1 250533Z 06003KT 07/M08 A3016 RMK A01 T00741078  RH  033%=      5-min Rain = 0
KGU1 250534Z 05003KT 08/M08 A3016 RMK A01 T00771078  RH  033%=      5-min Rain = 0
KGU1 250535Z 04002KT 08/M08 A3016 RMK A01 T00801078  RH  032%=      5-min Rain = 0
KGU1 250536Z 04003KT 08/M08 A3016 RMK A01 T00811079  RH  031%=      5-min Rain = 0
KGU1 250537Z 03002KT 08/M08 A3016 RMK A01 T00811079  RH  031%=      5-min Rain = 0
KGU1 250538Z 36002KT 08/M08 A3016 RMK A01 T00801080  RH  031%=      5-min Rain = 0
KGU1 250539Z 36002KT 08/M08 A3016 RMK A01 T00781081  RH  032%=      5-min Rain = 0
KGU1 250540Z 34003KT 08/M08 A3016 RMK A01 T00751081  RH  032%=      5-min Rain = 0
KGU1 250541Z 00002KT 07/M08 A3016 RMK A01 T00721083  RH  032%=      5-min Rain = 0
KGU1 250542Z 02003KT 07/M08 A3016 RMK A01 T00681083  RH  033%=      5-min Rain = 0
KGU1 250543Z 02003KT 07/M08 A3016 RMK A01 T00661082  RH  034%=      5-min Rain = 0
KGU1 250544Z 03003KT 07/M08 A3016 RMK A01 T00651080  RH  035%=      5-min Rain = 0
KGU1 250545Z 03003KT 07/M08 A3016 RMK A01 T00651079  RH  035%=      5-min Rain = 0
KGU1 250546Z 03003KT 07/M08 A3016 RMK A01 T00661079  RH  035%=      5-min Rain = 0
KGU1 250547Z 01003KT 07/M08 A3016 RMK A01 T00671078  RH  035%=      5-min Rain = 0
KGU1 250548Z 02003KT 07/M08 A3016 RMK A01 T00671078  RH  035%=      5-min Rain = 0
KGU1 250549Z 03003KT 07/M08 A3016 RMK A01 T00671078  RH  035%=      5-min Rain = 0
KGU1 250550Z 03004KT 07/M08 A3016 RMK A01 T00681077  RH  035%=      5-min Rain = 0
KGU1 250551Z 02004KT 07/M08 A3016 RMK A01 T00691077  RH  035%=      5-min Rain = 0
KGU1 250552Z 01004KT 07/M08 A3016 RMK A01 T00701077  RH  034%=      5-min Rain = 0
KGU1 250553Z 01004KT 07/M08 A3016 RMK A01 T00701077  RH  034%=      5-min Rain = 0
KGU1 250554Z 01005KT 07/M08 A3016 RMK A01 T00691077  RH  035%=      5-min Rain = 0
KGU1 250555Z 00004KT 07/M08 A3016 RMK A01 T00681077  RH  035%=      5-min Rain = 0
KGU1 250556Z 00004KT 07/M08 A3017 RMK A01 T00681076  RH  035%=      5-min Rain = 0
KGU1 250557Z 01004KT 07/M08 A3017 RMK A01 T00681076  RH  035%=      5-min Rain = 0
KGU1 250558Z 01004KT 07/M08 A3017 RMK A01 T00681075  RH  035%=      5-min Rain = 0
KGU1 250559Z 01004KT 07/M08 A3017 RMK A01 T00691075  RH  035%=      5-min Rain = 0

Page generated in 0.1213 seconds.